<?xml version="1.0" encoding="UTF-8" standalone="no" ?>
<gpx xmlns="http://www.topografix.com/GPX/1/1" xmlns:xsi="http://www.w3.org/2001/XMLSchema-instance" xsi:schemaLocation="http://www.topografix.com/GPX/1/1 http://www.topografix.com/GPX/1/1/gpx.xsd" version="1.1" creator="VisuGPX - https://www.visugpx.com">
  <metadata>
    <name>RSPFY-Bullion-Bonnelles</name>
    <desc><![CDATA[marche nordique au départ de Bullion et passant par Bonnelles.]]></desc>
  </metadata>
  <trk>
    <name><![CDATA[2023-01-26 09:05]]></name>
    <desc><![CDATA[<p>Heure de départ: 09:05 26 janv. 2023<br/>Heure d'arrivée: 11:38 26 janv. 2023<br/>Distance: 11,4 km (02:33)<br/>Temps déplacement: 02:10<br/>Vitesse moyenne: 4,48 km/h<br/>Vitesse moyenne mouv.: 5,28 km/h<br/>Vitesse Max.: 8,36 km/h<br/>Altitude minimale: 101 m<br/>Altitude maximale: 173 m<br/>Vitesse de montée: 350,4 m/h<br/>Vitesse de descente: -320,2 m/h<br/>Gain d'altitude: 423 m<br/>Perte d'altitude: -418 m<br/>Temps de montée: 01:12<br/>Temps de descente: 01:18<br/></p><hr align="center" width="480" style="height: 2px; width: 517px"/>]]></desc>
    <trkseg>
      <trkpt lat="48.62201" lon="2.00277">
        <ele>114.3</ele>
        <time>2023-01-26T08:05:40Z</time>
      </trkpt>
      <trkpt lat="48.62197" lon="2.00265">
        <ele>114.5</ele>
        <time>2023-01-26T08:08:11Z</time>
      </trkpt>
      <trkpt lat="48.6219" lon="2.00255">
        <ele>114.5</ele>
        <time>2023-01-26T08:08:21Z</time>
      </trkpt>
      <trkpt lat="48.6218" lon="2.0025">
        <ele>114</ele>
        <time>2023-01-26T08:08:30Z</time>
      </trkpt>
      <trkpt lat="48.62171" lon="2.00242">
        <ele>113.6</ele>
        <time>2023-01-26T08:08:37Z</time>
      </trkpt>
      <trkpt lat="48.62164" lon="2.00231">
        <ele>113.5</ele>
        <time>2023-01-26T08:08:43Z</time>
      </trkpt>
      <trkpt lat="48.62157" lon="2.00221">
        <ele>113.3</ele>
        <time>2023-01-26T08:08:50Z</time>
      </trkpt>
      <trkpt lat="48.62147" lon="2.00222">
        <ele>112.6</ele>
        <time>2023-01-26T08:08:58Z</time>
      </trkpt>
      <trkpt lat="48.62137" lon="2.00221">
        <ele>111.9</ele>
        <time>2023-01-26T08:09:15Z</time>
      </trkpt>
      <trkpt lat="48.62129" lon="2.00224">
        <ele>111.3</ele>
        <time>2023-01-26T08:09:24Z</time>
      </trkpt>
      <trkpt lat="48.62119" lon="2.00223">
        <ele>110.6</ele>
        <time>2023-01-26T08:09:34Z</time>
      </trkpt>
      <trkpt lat="48.6211" lon="2.00219">
        <ele>110.1</ele>
        <time>2023-01-26T08:09:43Z</time>
      </trkpt>
      <trkpt lat="48.621" lon="2.00217">
        <ele>109.7</ele>
        <time>2023-01-26T08:09:51Z</time>
      </trkpt>
      <trkpt lat="48.62091" lon="2.00218">
        <ele>109.3</ele>
        <time>2023-01-26T08:09:59Z</time>
      </trkpt>
      <trkpt lat="48.62081" lon="2.00217">
        <ele>108.9</ele>
        <time>2023-01-26T08:10:06Z</time>
      </trkpt>
      <trkpt lat="48.62071" lon="2.00215">
        <ele>108.6</ele>
        <time>2023-01-26T08:10:14Z</time>
      </trkpt>
      <trkpt lat="48.62061" lon="2.00214">
        <ele>108.2</ele>
        <time>2023-01-26T08:10:21Z</time>
      </trkpt>
      <trkpt lat="48.62052" lon="2.00215">
        <ele>108</ele>
        <time>2023-01-26T08:10:27Z</time>
      </trkpt>
      <trkpt lat="48.62042" lon="2.00215">
        <ele>108</ele>
        <time>2023-01-26T08:10:33Z</time>
      </trkpt>
      <trkpt lat="48.62032" lon="2.00214">
        <ele>108</ele>
        <time>2023-01-26T08:10:40Z</time>
      </trkpt>
      <trkpt lat="48.62021" lon="2.00215">
        <ele>108</ele>
        <time>2023-01-26T08:10:46Z</time>
      </trkpt>
      <trkpt lat="48.62012" lon="2.00212">
        <ele>108</ele>
        <time>2023-01-26T08:10:55Z</time>
      </trkpt>
      <trkpt lat="48.62001" lon="2.00212">
        <ele>108</ele>
        <time>2023-01-26T08:11:01Z</time>
      </trkpt>
      <trkpt lat="48.61992" lon="2.00212">
        <ele>108</ele>
        <time>2023-01-26T08:11:08Z</time>
      </trkpt>
      <trkpt lat="48.61981" lon="2.00209">
        <ele>108</ele>
        <time>2023-01-26T08:11:17Z</time>
      </trkpt>
      <trkpt lat="48.61971" lon="2.0021">
        <ele>108</ele>
        <time>2023-01-26T08:11:22Z</time>
      </trkpt>
      <trkpt lat="48.61961" lon="2.00211">
        <ele>108.2</ele>
        <time>2023-01-26T08:11:28Z</time>
      </trkpt>
      <trkpt lat="48.61952" lon="2.00213">
        <ele>108.5</ele>
        <time>2023-01-26T08:11:33Z</time>
      </trkpt>
      <trkpt lat="48.61942" lon="2.00214">
        <ele>108.8</ele>
        <time>2023-01-26T08:11:39Z</time>
      </trkpt>
      <trkpt lat="48.61932" lon="2.00215">
        <ele>109.3</ele>
        <time>2023-01-26T08:11:45Z</time>
      </trkpt>
      <trkpt lat="48.61923" lon="2.00214">
        <ele>109.7</ele>
        <time>2023-01-26T08:11:52Z</time>
      </trkpt>
      <trkpt lat="48.61914" lon="2.00217">
        <ele>110.1</ele>
        <time>2023-01-26T08:11:58Z</time>
      </trkpt>
      <trkpt lat="48.61904" lon="2.00221">
        <ele>110.5</ele>
        <time>2023-01-26T08:12:04Z</time>
      </trkpt>
      <trkpt lat="48.61894" lon="2.00224">
        <ele>110.8</ele>
        <time>2023-01-26T08:12:09Z</time>
      </trkpt>
      <trkpt lat="48.61885" lon="2.00228">
        <ele>111.2</ele>
        <time>2023-01-26T08:12:16Z</time>
      </trkpt>
      <trkpt lat="48.61875" lon="2.00232">
        <ele>111.5</ele>
        <time>2023-01-26T08:12:21Z</time>
      </trkpt>
      <trkpt lat="48.61866" lon="2.00234">
        <ele>111.8</ele>
        <time>2023-01-26T08:12:27Z</time>
      </trkpt>
      <trkpt lat="48.61856" lon="2.00235">
        <ele>112.2</ele>
        <time>2023-01-26T08:12:34Z</time>
      </trkpt>
      <trkpt lat="48.61847" lon="2.00232">
        <ele>112.5</ele>
        <time>2023-01-26T08:12:41Z</time>
      </trkpt>
      <trkpt lat="48.61837" lon="2.00232">
        <ele>112.9</ele>
        <time>2023-01-26T08:12:49Z</time>
      </trkpt>
      <trkpt lat="48.61828" lon="2.0023">
        <ele>113.2</ele>
        <time>2023-01-26T08:12:58Z</time>
      </trkpt>
      <trkpt lat="48.61819" lon="2.00226">
        <ele>113.5</ele>
        <time>2023-01-26T08:13:04Z</time>
      </trkpt>
      <trkpt lat="48.61811" lon="2.00219">
        <ele>113.8</ele>
        <time>2023-01-26T08:13:11Z</time>
      </trkpt>
      <trkpt lat="48.61803" lon="2.0021">
        <ele>114.1</ele>
        <time>2023-01-26T08:13:18Z</time>
      </trkpt>
      <trkpt lat="48.61794" lon="2.00204">
        <ele>114.4</ele>
        <time>2023-01-26T08:13:27Z</time>
      </trkpt>
      <trkpt lat="48.61785" lon="2.00202">
        <ele>114.8</ele>
        <time>2023-01-26T08:13:32Z</time>
      </trkpt>
      <trkpt lat="48.61774" lon="2.00205">
        <ele>115.1</ele>
        <time>2023-01-26T08:13:38Z</time>
      </trkpt>
      <trkpt lat="48.61764" lon="2.00211">
        <ele>115.5</ele>
        <time>2023-01-26T08:13:44Z</time>
      </trkpt>
      <trkpt lat="48.61754" lon="2.00215">
        <ele>115.8</ele>
        <time>2023-01-26T08:13:52Z</time>
      </trkpt>
      <trkpt lat="48.61745" lon="2.0021">
        <ele>116</ele>
        <time>2023-01-26T08:14:00Z</time>
      </trkpt>
      <trkpt lat="48.61736" lon="2.00215">
        <ele>116</ele>
        <time>2023-01-26T08:14:07Z</time>
      </trkpt>
      <trkpt lat="48.61727" lon="2.00221">
        <ele>116</ele>
        <time>2023-01-26T08:14:16Z</time>
      </trkpt>
      <trkpt lat="48.61717" lon="2.00218">
        <ele>116.2</ele>
        <time>2023-01-26T08:14:23Z</time>
      </trkpt>
      <trkpt lat="48.61709" lon="2.00222">
        <ele>116.5</ele>
        <time>2023-01-26T08:14:34Z</time>
      </trkpt>
      <trkpt lat="48.617" lon="2.00224">
        <ele>116.8</ele>
        <time>2023-01-26T08:14:43Z</time>
      </trkpt>
      <trkpt lat="48.6169" lon="2.00229">
        <ele>116.8</ele>
        <time>2023-01-26T08:14:51Z</time>
      </trkpt>
      <trkpt lat="48.61682" lon="2.00235">
        <ele>116.7</ele>
        <time>2023-01-26T08:14:58Z</time>
      </trkpt>
      <trkpt lat="48.61673" lon="2.00242">
        <ele>116.8</ele>
        <time>2023-01-26T08:15:07Z</time>
      </trkpt>
      <trkpt lat="48.61665" lon="2.0025">
        <ele>117.1</ele>
        <time>2023-01-26T08:15:15Z</time>
      </trkpt>
      <trkpt lat="48.61659" lon="2.00262">
        <ele>117.3</ele>
        <time>2023-01-26T08:15:24Z</time>
      </trkpt>
      <trkpt lat="48.6165" lon="2.00267">
        <ele>117.6</ele>
        <time>2023-01-26T08:15:33Z</time>
      </trkpt>
      <trkpt lat="48.61642" lon="2.00272">
        <ele>117.9</ele>
        <time>2023-01-26T08:15:44Z</time>
      </trkpt>
      <trkpt lat="48.61631" lon="2.00273">
        <ele>118.3</ele>
        <time>2023-01-26T08:15:50Z</time>
      </trkpt>
      <trkpt lat="48.61623" lon="2.00279">
        <ele>118.6</ele>
        <time>2023-01-26T08:15:57Z</time>
      </trkpt>
      <trkpt lat="48.61613" lon="2.00276">
        <ele>118.9</ele>
        <time>2023-01-26T08:16:05Z</time>
      </trkpt>
      <trkpt lat="48.61605" lon="2.00268">
        <ele>119.4</ele>
        <time>2023-01-26T08:16:15Z</time>
      </trkpt>
      <trkpt lat="48.61598" lon="2.00259">
        <ele>119.6</ele>
        <time>2023-01-26T08:16:23Z</time>
      </trkpt>
      <trkpt lat="48.61591" lon="2.0025">
        <ele>119.7</ele>
        <time>2023-01-26T08:16:30Z</time>
      </trkpt>
      <trkpt lat="48.61581" lon="2.0025">
        <ele>120.1</ele>
        <time>2023-01-26T08:16:37Z</time>
      </trkpt>
      <trkpt lat="48.61574" lon="2.00259">
        <ele>120.7</ele>
        <time>2023-01-26T08:16:46Z</time>
      </trkpt>
      <trkpt lat="48.61567" lon="2.00268">
        <ele>121.2</ele>
        <time>2023-01-26T08:16:58Z</time>
      </trkpt>
      <trkpt lat="48.61558" lon="2.00276">
        <ele>121.8</ele>
        <time>2023-01-26T08:17:07Z</time>
      </trkpt>
      <trkpt lat="48.6155" lon="2.00282">
        <ele>122.6</ele>
        <time>2023-01-26T08:17:17Z</time>
      </trkpt>
      <trkpt lat="48.61539" lon="2.00282">
        <ele>123.3</ele>
        <time>2023-01-26T08:17:26Z</time>
      </trkpt>
      <trkpt lat="48.61533" lon="2.00272">
        <ele>123.2</ele>
        <time>2023-01-26T08:17:34Z</time>
      </trkpt>
      <trkpt lat="48.61526" lon="2.00262">
        <ele>122.9</ele>
        <time>2023-01-26T08:17:42Z</time>
      </trkpt>
      <trkpt lat="48.61518" lon="2.00253">
        <ele>122.5</ele>
        <time>2023-01-26T08:17:53Z</time>
      </trkpt>
      <trkpt lat="48.61512" lon="2.00242">
        <ele>122.3</ele>
        <time>2023-01-26T08:17:59Z</time>
      </trkpt>
      <trkpt lat="48.61505" lon="2.00231">
        <ele>122.1</ele>
        <time>2023-01-26T08:18:05Z</time>
      </trkpt>
      <trkpt lat="48.61498" lon="2.00219">
        <ele>121.8</ele>
        <time>2023-01-26T08:18:11Z</time>
      </trkpt>
      <trkpt lat="48.61491" lon="2.00208">
        <ele>121.4</ele>
        <time>2023-01-26T08:18:15Z</time>
      </trkpt>
      <trkpt lat="48.61485" lon="2.00197">
        <ele>121.2</ele>
        <time>2023-01-26T08:18:20Z</time>
      </trkpt>
      <trkpt lat="48.61479" lon="2.00187">
        <ele>121.1</ele>
        <time>2023-01-26T08:18:26Z</time>
      </trkpt>
      <trkpt lat="48.61472" lon="2.00177">
        <ele>120.8</ele>
        <time>2023-01-26T08:18:32Z</time>
      </trkpt>
      <trkpt lat="48.61464" lon="2.00168">
        <ele>120.7</ele>
        <time>2023-01-26T08:18:39Z</time>
      </trkpt>
      <trkpt lat="48.61458" lon="2.00157">
        <ele>120.7</ele>
        <time>2023-01-26T08:18:46Z</time>
      </trkpt>
      <trkpt lat="48.61451" lon="2.00149">
        <ele>120.5</ele>
        <time>2023-01-26T08:18:52Z</time>
      </trkpt>
      <trkpt lat="48.61442" lon="2.00141">
        <ele>120.3</ele>
        <time>2023-01-26T08:18:59Z</time>
      </trkpt>
      <trkpt lat="48.61434" lon="2.00132">
        <ele>120.7</ele>
        <time>2023-01-26T08:19:06Z</time>
      </trkpt>
      <trkpt lat="48.61426" lon="2.00122">
        <ele>120.9</ele>
        <time>2023-01-26T08:19:13Z</time>
      </trkpt>
      <trkpt lat="48.61417" lon="2.00117">
        <ele>121.2</ele>
        <time>2023-01-26T08:19:29Z</time>
      </trkpt>
      <trkpt lat="48.61409" lon="2.00107">
        <ele>121.4</ele>
        <time>2023-01-26T08:19:41Z</time>
      </trkpt>
      <trkpt lat="48.61402" lon="2.00097">
        <ele>121.6</ele>
        <time>2023-01-26T08:19:47Z</time>
      </trkpt>
      <trkpt lat="48.61393" lon="2.0009">
        <ele>122</ele>
        <time>2023-01-26T08:19:55Z</time>
      </trkpt>
      <trkpt lat="48.61385" lon="2.00083">
        <ele>122.5</ele>
        <time>2023-01-26T08:20:03Z</time>
      </trkpt>
      <trkpt lat="48.61377" lon="2.00074">
        <ele>123</ele>
        <time>2023-01-26T08:20:14Z</time>
      </trkpt>
      <trkpt lat="48.6137" lon="2.00066">
        <ele>123.4</ele>
        <time>2023-01-26T08:20:27Z</time>
      </trkpt>
      <trkpt lat="48.61364" lon="2.00055">
        <ele>123.7</ele>
        <time>2023-01-26T08:20:39Z</time>
      </trkpt>
      <trkpt lat="48.61359" lon="2.00068">
        <ele>124.6</ele>
        <time>2023-01-26T08:21:54Z</time>
      </trkpt>
      <trkpt lat="48.6136" lon="2.00083">
        <ele>125.1</ele>
        <time>2023-01-26T08:22:03Z</time>
      </trkpt>
      <trkpt lat="48.61363" lon="2.00097">
        <ele>125.3</ele>
        <time>2023-01-26T08:22:20Z</time>
      </trkpt>
      <trkpt lat="48.61368" lon="2.00109">
        <ele>125.2</ele>
        <time>2023-01-26T08:22:27Z</time>
      </trkpt>
      <trkpt lat="48.61373" lon="2.00121">
        <ele>124.8</ele>
        <time>2023-01-26T08:22:34Z</time>
      </trkpt>
      <trkpt lat="48.61377" lon="2.00134">
        <ele>124.7</ele>
        <time>2023-01-26T08:22:41Z</time>
      </trkpt>
      <trkpt lat="48.6138" lon="2.00147">
        <ele>124.9</ele>
        <time>2023-01-26T08:22:49Z</time>
      </trkpt>
      <trkpt lat="48.61381" lon="2.00161">
        <ele>125.4</ele>
        <time>2023-01-26T08:22:59Z</time>
      </trkpt>
      <trkpt lat="48.61376" lon="2.00173">
        <ele>126.3</ele>
        <time>2023-01-26T08:23:19Z</time>
      </trkpt>
      <trkpt lat="48.61369" lon="2.00182">
        <ele>127.1</ele>
        <time>2023-01-26T08:23:30Z</time>
      </trkpt>
      <trkpt lat="48.61362" lon="2.00192">
        <ele>127.9</ele>
        <time>2023-01-26T08:23:38Z</time>
      </trkpt>
      <trkpt lat="48.61355" lon="2.00201">
        <ele>128.9</ele>
        <time>2023-01-26T08:23:46Z</time>
      </trkpt>
      <trkpt lat="48.61346" lon="2.00206">
        <ele>129.9</ele>
        <time>2023-01-26T08:23:54Z</time>
      </trkpt>
      <trkpt lat="48.61338" lon="2.00215">
        <ele>131.1</ele>
        <time>2023-01-26T08:24:00Z</time>
      </trkpt>
      <trkpt lat="48.61331" lon="2.00223">
        <ele>132.4</ele>
        <time>2023-01-26T08:24:07Z</time>
      </trkpt>
      <trkpt lat="48.61323" lon="2.0023">
        <ele>134</ele>
        <time>2023-01-26T08:24:17Z</time>
      </trkpt>
      <trkpt lat="48.61313" lon="2.00235">
        <ele>135.6</ele>
        <time>2023-01-26T08:24:26Z</time>
      </trkpt>
      <trkpt lat="48.61304" lon="2.00235">
        <ele>136.6</ele>
        <time>2023-01-26T08:24:36Z</time>
      </trkpt>
      <trkpt lat="48.61294" lon="2.00232">
        <ele>137.6</ele>
        <time>2023-01-26T08:24:44Z</time>
      </trkpt>
      <trkpt lat="48.61285" lon="2.00231">
        <ele>138.8</ele>
        <time>2023-01-26T08:24:51Z</time>
      </trkpt>
      <trkpt lat="48.61275" lon="2.00229">
        <ele>139.8</ele>
        <time>2023-01-26T08:24:59Z</time>
      </trkpt>
      <trkpt lat="48.61266" lon="2.00228">
        <ele>141.2</ele>
        <time>2023-01-26T08:25:11Z</time>
      </trkpt>
      <trkpt lat="48.61255" lon="2.00228">
        <ele>142.7</ele>
        <time>2023-01-26T08:25:20Z</time>
      </trkpt>
      <trkpt lat="48.61247" lon="2.00217">
        <ele>142.9</ele>
        <time>2023-01-26T08:25:27Z</time>
      </trkpt>
      <trkpt lat="48.6124" lon="2.00208">
        <ele>143.1</ele>
        <time>2023-01-26T08:25:34Z</time>
      </trkpt>
      <trkpt lat="48.61231" lon="2.00206">
        <ele>143.9</ele>
        <time>2023-01-26T08:25:42Z</time>
      </trkpt>
      <trkpt lat="48.61223" lon="2.00215">
        <ele>145.4</ele>
        <time>2023-01-26T08:25:51Z</time>
      </trkpt>
      <trkpt lat="48.61216" lon="2.00225">
        <ele>146.9</ele>
        <time>2023-01-26T08:26:07Z</time>
      </trkpt>
      <trkpt lat="48.61209" lon="2.00236">
        <ele>148.2</ele>
        <time>2023-01-26T08:26:16Z</time>
      </trkpt>
      <trkpt lat="48.61201" lon="2.00244">
        <ele>149.2</ele>
        <time>2023-01-26T08:26:24Z</time>
      </trkpt>
      <trkpt lat="48.61192" lon="2.00248">
        <ele>150</ele>
        <time>2023-01-26T08:26:31Z</time>
      </trkpt>
      <trkpt lat="48.61182" lon="2.00251">
        <ele>150.5</ele>
        <time>2023-01-26T08:26:41Z</time>
      </trkpt>
      <trkpt lat="48.61173" lon="2.00256">
        <ele>151</ele>
        <time>2023-01-26T08:26:49Z</time>
      </trkpt>
      <trkpt lat="48.61165" lon="2.00264">
        <ele>151.6</ele>
        <time>2023-01-26T08:26:58Z</time>
      </trkpt>
      <trkpt lat="48.61156" lon="2.00271">
        <ele>152.1</ele>
        <time>2023-01-26T08:27:08Z</time>
      </trkpt>
      <trkpt lat="48.61147" lon="2.00277">
        <ele>152.6</ele>
        <time>2023-01-26T08:27:16Z</time>
      </trkpt>
      <trkpt lat="48.61137" lon="2.00279">
        <ele>153</ele>
        <time>2023-01-26T08:27:24Z</time>
      </trkpt>
      <trkpt lat="48.61129" lon="2.00285">
        <ele>152.9</ele>
        <time>2023-01-26T08:27:33Z</time>
      </trkpt>
      <trkpt lat="48.6112" lon="2.00287">
        <ele>152.8</ele>
        <time>2023-01-26T08:27:43Z</time>
      </trkpt>
      <trkpt lat="48.6111" lon="2.00291">
        <ele>152.5</ele>
        <time>2023-01-26T08:27:52Z</time>
      </trkpt>
      <trkpt lat="48.61102" lon="2.00299">
        <ele>152.2</ele>
        <time>2023-01-26T08:27:59Z</time>
      </trkpt>
      <trkpt lat="48.61092" lon="2.00304">
        <ele>152</ele>
        <time>2023-01-26T08:28:07Z</time>
      </trkpt>
      <trkpt lat="48.61083" lon="2.00308">
        <ele>152</ele>
        <time>2023-01-26T08:28:14Z</time>
      </trkpt>
      <trkpt lat="48.61074" lon="2.00313">
        <ele>152</ele>
        <time>2023-01-26T08:28:20Z</time>
      </trkpt>
      <trkpt lat="48.61065" lon="2.00317">
        <ele>152</ele>
        <time>2023-01-26T08:28:26Z</time>
      </trkpt>
      <trkpt lat="48.61056" lon="2.00323">
        <ele>152</ele>
        <time>2023-01-26T08:28:33Z</time>
      </trkpt>
      <trkpt lat="48.61047" lon="2.00332">
        <ele>152</ele>
        <time>2023-01-26T08:28:41Z</time>
      </trkpt>
      <trkpt lat="48.61038" lon="2.00336">
        <ele>152</ele>
        <time>2023-01-26T08:28:49Z</time>
      </trkpt>
      <trkpt lat="48.61028" lon="2.00341">
        <ele>152</ele>
        <time>2023-01-26T08:28:56Z</time>
      </trkpt>
      <trkpt lat="48.6102" lon="2.00347">
        <ele>152.3</ele>
        <time>2023-01-26T08:29:02Z</time>
      </trkpt>
      <trkpt lat="48.61012" lon="2.00354">
        <ele>152.6</ele>
        <time>2023-01-26T08:29:10Z</time>
      </trkpt>
      <trkpt lat="48.61003" lon="2.0036">
        <ele>152.9</ele>
        <time>2023-01-26T08:29:16Z</time>
      </trkpt>
      <trkpt lat="48.60994" lon="2.00363">
        <ele>152.9</ele>
        <time>2023-01-26T08:29:22Z</time>
      </trkpt>
      <trkpt lat="48.60984" lon="2.00368">
        <ele>152.9</ele>
        <time>2023-01-26T08:29:32Z</time>
      </trkpt>
      <trkpt lat="48.60975" lon="2.00372">
        <ele>153</ele>
        <time>2023-01-26T08:29:39Z</time>
      </trkpt>
      <trkpt lat="48.60966" lon="2.00379">
        <ele>153</ele>
        <time>2023-01-26T08:29:46Z</time>
      </trkpt>
      <trkpt lat="48.60959" lon="2.00389">
        <ele>153</ele>
        <time>2023-01-26T08:29:54Z</time>
      </trkpt>
      <trkpt lat="48.6095" lon="2.00394">
        <ele>152.8</ele>
        <time>2023-01-26T08:30:01Z</time>
      </trkpt>
      <trkpt lat="48.60939" lon="2.00396">
        <ele>152.6</ele>
        <time>2023-01-26T08:30:08Z</time>
      </trkpt>
      <trkpt lat="48.6093" lon="2.004">
        <ele>152.3</ele>
        <time>2023-01-26T08:30:14Z</time>
      </trkpt>
      <trkpt lat="48.6092" lon="2.00403">
        <ele>152.1</ele>
        <time>2023-01-26T08:30:21Z</time>
      </trkpt>
      <trkpt lat="48.60911" lon="2.00404">
        <ele>152</ele>
        <time>2023-01-26T08:30:28Z</time>
      </trkpt>
      <trkpt lat="48.60901" lon="2.00407">
        <ele>152</ele>
        <time>2023-01-26T08:30:35Z</time>
      </trkpt>
      <trkpt lat="48.60891" lon="2.00408">
        <ele>152</ele>
        <time>2023-01-26T08:30:44Z</time>
      </trkpt>
      <trkpt lat="48.60881" lon="2.0041">
        <ele>151.8</ele>
        <time>2023-01-26T08:30:51Z</time>
      </trkpt>
      <trkpt lat="48.60871" lon="2.00412">
        <ele>151.5</ele>
        <time>2023-01-26T08:30:58Z</time>
      </trkpt>
      <trkpt lat="48.60862" lon="2.00411">
        <ele>151.2</ele>
        <time>2023-01-26T08:31:07Z</time>
      </trkpt>
      <trkpt lat="48.60852" lon="2.00416">
        <ele>151</ele>
        <time>2023-01-26T08:31:14Z</time>
      </trkpt>
      <trkpt lat="48.60843" lon="2.00421">
        <ele>150.7</ele>
        <time>2023-01-26T08:31:19Z</time>
      </trkpt>
      <trkpt lat="48.60833" lon="2.00427">
        <ele>150.3</ele>
        <time>2023-01-26T08:31:26Z</time>
      </trkpt>
      <trkpt lat="48.60824" lon="2.00435">
        <ele>150</ele>
        <time>2023-01-26T08:31:33Z</time>
      </trkpt>
      <trkpt lat="48.60816" lon="2.00443">
        <ele>149.7</ele>
        <time>2023-01-26T08:31:40Z</time>
      </trkpt>
      <trkpt lat="48.60807" lon="2.00451">
        <ele>149.5</ele>
        <time>2023-01-26T08:31:46Z</time>
      </trkpt>
      <trkpt lat="48.60799" lon="2.0046">
        <ele>149.5</ele>
        <time>2023-01-26T08:31:51Z</time>
      </trkpt>
      <trkpt lat="48.60793" lon="2.00471">
        <ele>149.4</ele>
        <time>2023-01-26T08:31:57Z</time>
      </trkpt>
      <trkpt lat="48.60789" lon="2.00483">
        <ele>149.1</ele>
        <time>2023-01-26T08:32:02Z</time>
      </trkpt>
      <trkpt lat="48.60786" lon="2.00497">
        <ele>148.7</ele>
        <time>2023-01-26T08:32:07Z</time>
      </trkpt>
      <trkpt lat="48.60783" lon="2.00511">
        <ele>148.7</ele>
        <time>2023-01-26T08:32:13Z</time>
      </trkpt>
      <trkpt lat="48.6078" lon="2.00524">
        <ele>148.6</ele>
        <time>2023-01-26T08:32:19Z</time>
      </trkpt>
      <trkpt lat="48.60777" lon="2.00539">
        <ele>148.6</ele>
        <time>2023-01-26T08:32:25Z</time>
      </trkpt>
      <trkpt lat="48.60775" lon="2.00553">
        <ele>148.1</ele>
        <time>2023-01-26T08:32:31Z</time>
      </trkpt>
      <trkpt lat="48.60776" lon="2.00568">
        <ele>147.1</ele>
        <time>2023-01-26T08:32:39Z</time>
      </trkpt>
      <trkpt lat="48.60777" lon="2.00581">
        <ele>146.2</ele>
        <time>2023-01-26T08:32:46Z</time>
      </trkpt>
      <trkpt lat="48.60777" lon="2.00595">
        <ele>145.1</ele>
        <time>2023-01-26T08:32:54Z</time>
      </trkpt>
      <trkpt lat="48.60775" lon="2.00609">
        <ele>143.8</ele>
        <time>2023-01-26T08:33:03Z</time>
      </trkpt>
      <trkpt lat="48.60772" lon="2.00623">
        <ele>142.5</ele>
        <time>2023-01-26T08:33:11Z</time>
      </trkpt>
      <trkpt lat="48.60769" lon="2.00636">
        <ele>141.2</ele>
        <time>2023-01-26T08:33:19Z</time>
      </trkpt>
      <trkpt lat="48.60762" lon="2.00647">
        <ele>139.8</ele>
        <time>2023-01-26T08:33:28Z</time>
      </trkpt>
      <trkpt lat="48.60753" lon="2.00651">
        <ele>138.8</ele>
        <time>2023-01-26T08:33:40Z</time>
      </trkpt>
      <trkpt lat="48.6075" lon="2.00666">
        <ele>138</ele>
        <time>2023-01-26T08:33:49Z</time>
      </trkpt>
      <trkpt lat="48.60744" lon="2.00676">
        <ele>136.6</ele>
        <time>2023-01-26T08:33:58Z</time>
      </trkpt>
      <trkpt lat="48.60737" lon="2.00687">
        <ele>135.4</ele>
        <time>2023-01-26T08:34:06Z</time>
      </trkpt>
      <trkpt lat="48.60731" lon="2.00696">
        <ele>134.5</ele>
        <time>2023-01-26T08:34:12Z</time>
      </trkpt>
      <trkpt lat="48.60722" lon="2.00705">
        <ele>133.6</ele>
        <time>2023-01-26T08:34:20Z</time>
      </trkpt>
      <trkpt lat="48.60715" lon="2.00716">
        <ele>132.5</ele>
        <time>2023-01-26T08:34:27Z</time>
      </trkpt>
      <trkpt lat="48.60708" lon="2.00726">
        <ele>131.3</ele>
        <time>2023-01-26T08:34:43Z</time>
      </trkpt>
      <trkpt lat="48.60699" lon="2.00733">
        <ele>130.1</ele>
        <time>2023-01-26T08:34:49Z</time>
      </trkpt>
      <trkpt lat="48.60695" lon="2.00746">
        <ele>129.2</ele>
        <time>2023-01-26T08:35:00Z</time>
      </trkpt>
      <trkpt lat="48.60689" lon="2.00757">
        <ele>128</ele>
        <time>2023-01-26T08:35:09Z</time>
      </trkpt>
      <trkpt lat="48.60681" lon="2.00766">
        <ele>126.7</ele>
        <time>2023-01-26T08:35:16Z</time>
      </trkpt>
      <trkpt lat="48.60672" lon="2.00775">
        <ele>125.6</ele>
        <time>2023-01-26T08:35:23Z</time>
      </trkpt>
      <trkpt lat="48.60666" lon="2.00786">
        <ele>124.6</ele>
        <time>2023-01-26T08:35:31Z</time>
      </trkpt>
      <trkpt lat="48.60657" lon="2.00796">
        <ele>123.6</ele>
        <time>2023-01-26T08:35:36Z</time>
      </trkpt>
      <trkpt lat="48.60652" lon="2.00806">
        <ele>122.9</ele>
        <time>2023-01-26T08:35:42Z</time>
      </trkpt>
      <trkpt lat="48.60645" lon="2.00817">
        <ele>122.1</ele>
        <time>2023-01-26T08:35:51Z</time>
      </trkpt>
      <trkpt lat="48.60637" lon="2.00827">
        <ele>121.1</ele>
        <time>2023-01-26T08:35:58Z</time>
      </trkpt>
      <trkpt lat="48.60631" lon="2.00837">
        <ele>120.5</ele>
        <time>2023-01-26T08:36:05Z</time>
      </trkpt>
      <trkpt lat="48.60623" lon="2.00845">
        <ele>120.1</ele>
        <time>2023-01-26T08:36:12Z</time>
      </trkpt>
      <trkpt lat="48.60617" lon="2.00856">
        <ele>119.6</ele>
        <time>2023-01-26T08:36:19Z</time>
      </trkpt>
      <trkpt lat="48.60609" lon="2.00866">
        <ele>119</ele>
        <time>2023-01-26T08:36:26Z</time>
      </trkpt>
      <trkpt lat="48.60603" lon="2.00875">
        <ele>118.7</ele>
        <time>2023-01-26T08:36:35Z</time>
      </trkpt>
      <trkpt lat="48.60596" lon="2.00886">
        <ele>118.3</ele>
        <time>2023-01-26T08:36:47Z</time>
      </trkpt>
      <trkpt lat="48.60588" lon="2.00892">
        <ele>117.5</ele>
        <time>2023-01-26T08:36:55Z</time>
      </trkpt>
      <trkpt lat="48.60579" lon="2.00901">
        <ele>116.7</ele>
        <time>2023-01-26T08:37:04Z</time>
      </trkpt>
      <trkpt lat="48.60572" lon="2.00909">
        <ele>116.2</ele>
        <time>2023-01-26T08:37:14Z</time>
      </trkpt>
      <trkpt lat="48.60564" lon="2.00917">
        <ele>115.6</ele>
        <time>2023-01-26T08:37:22Z</time>
      </trkpt>
      <trkpt lat="48.60557" lon="2.00925">
        <ele>115.1</ele>
        <time>2023-01-26T08:37:29Z</time>
      </trkpt>
      <trkpt lat="48.60553" lon="2.00939">
        <ele>114.9</ele>
        <time>2023-01-26T08:37:38Z</time>
      </trkpt>
      <trkpt lat="48.60544" lon="2.00946">
        <ele>114.2</ele>
        <time>2023-01-26T08:37:44Z</time>
      </trkpt>
      <trkpt lat="48.6054" lon="2.00961">
        <ele>113.9</ele>
        <time>2023-01-26T08:37:51Z</time>
      </trkpt>
      <trkpt lat="48.60535" lon="2.00975">
        <ele>113.5</ele>
        <time>2023-01-26T08:37:58Z</time>
      </trkpt>
      <trkpt lat="48.60529" lon="2.00986">
        <ele>112.6</ele>
        <time>2023-01-26T08:38:04Z</time>
      </trkpt>
      <trkpt lat="48.60526" lon="2.00999">
        <ele>111.9</ele>
        <time>2023-01-26T08:38:10Z</time>
      </trkpt>
      <trkpt lat="48.60518" lon="2.01008">
        <ele>111</ele>
        <time>2023-01-26T08:38:18Z</time>
      </trkpt>
      <trkpt lat="48.6051" lon="2.01015">
        <ele>110.2</ele>
        <time>2023-01-26T08:39:05Z</time>
      </trkpt>
      <trkpt lat="48.60518" lon="2.01021">
        <ele>110.5</ele>
        <time>2023-01-26T08:39:32Z</time>
      </trkpt>
      <trkpt lat="48.60527" lon="2.01028">
        <ele>110.9</ele>
        <time>2023-01-26T08:39:41Z</time>
      </trkpt>
      <trkpt lat="48.60535" lon="2.01034">
        <ele>111.1</ele>
        <time>2023-01-26T08:39:49Z</time>
      </trkpt>
      <trkpt lat="48.60545" lon="2.01039">
        <ele>111.4</ele>
        <time>2023-01-26T08:39:56Z</time>
      </trkpt>
      <trkpt lat="48.60553" lon="2.01044">
        <ele>111.6</ele>
        <time>2023-01-26T08:40:04Z</time>
      </trkpt>
      <trkpt lat="48.60563" lon="2.0105">
        <ele>111.7</ele>
        <time>2023-01-26T08:40:11Z</time>
      </trkpt>
      <trkpt lat="48.60571" lon="2.01056">
        <ele>111.5</ele>
        <time>2023-01-26T08:40:18Z</time>
      </trkpt>
      <trkpt lat="48.60581" lon="2.01062">
        <ele>111.4</ele>
        <time>2023-01-26T08:40:26Z</time>
      </trkpt>
      <trkpt lat="48.60589" lon="2.01067">
        <ele>111.4</ele>
        <time>2023-01-26T08:40:33Z</time>
      </trkpt>
      <trkpt lat="48.60599" lon="2.01072">
        <ele>111.4</ele>
        <time>2023-01-26T08:40:41Z</time>
      </trkpt>
      <trkpt lat="48.60608" lon="2.01078">
        <ele>111.3</ele>
        <time>2023-01-26T08:40:49Z</time>
      </trkpt>
      <trkpt lat="48.60617" lon="2.01085">
        <ele>111.3</ele>
        <time>2023-01-26T08:40:57Z</time>
      </trkpt>
      <trkpt lat="48.60625" lon="2.01091">
        <ele>111.6</ele>
        <time>2023-01-26T08:41:07Z</time>
      </trkpt>
      <trkpt lat="48.60634" lon="2.01098">
        <ele>111.7</ele>
        <time>2023-01-26T08:41:15Z</time>
      </trkpt>
      <trkpt lat="48.60642" lon="2.01104">
        <ele>111.8</ele>
        <time>2023-01-26T08:41:21Z</time>
      </trkpt>
      <trkpt lat="48.60652" lon="2.01108">
        <ele>112.1</ele>
        <time>2023-01-26T08:41:27Z</time>
      </trkpt>
      <trkpt lat="48.6066" lon="2.01111">
        <ele>112.5</ele>
        <time>2023-01-26T08:41:33Z</time>
      </trkpt>
      <trkpt lat="48.6067" lon="2.01114">
        <ele>112.8</ele>
        <time>2023-01-26T08:41:40Z</time>
      </trkpt>
      <trkpt lat="48.60679" lon="2.01118">
        <ele>112.7</ele>
        <time>2023-01-26T08:41:47Z</time>
      </trkpt>
      <trkpt lat="48.60689" lon="2.01121">
        <ele>112.9</ele>
        <time>2023-01-26T08:41:54Z</time>
      </trkpt>
      <trkpt lat="48.60699" lon="2.01124">
        <ele>113.2</ele>
        <time>2023-01-26T08:42:01Z</time>
      </trkpt>
      <trkpt lat="48.60708" lon="2.01127">
        <ele>113.5</ele>
        <time>2023-01-26T08:42:08Z</time>
      </trkpt>
      <trkpt lat="48.60718" lon="2.01131">
        <ele>113.8</ele>
        <time>2023-01-26T08:42:15Z</time>
      </trkpt>
      <trkpt lat="48.60727" lon="2.01132">
        <ele>114</ele>
        <time>2023-01-26T08:42:22Z</time>
      </trkpt>
      <trkpt lat="48.60736" lon="2.01135">
        <ele>114</ele>
        <time>2023-01-26T08:42:29Z</time>
      </trkpt>
      <trkpt lat="48.60746" lon="2.01138">
        <ele>114</ele>
        <time>2023-01-26T08:42:38Z</time>
      </trkpt>
      <trkpt lat="48.60755" lon="2.0114">
        <ele>114.2</ele>
        <time>2023-01-26T08:42:46Z</time>
      </trkpt>
      <trkpt lat="48.60764" lon="2.01143">
        <ele>114.7</ele>
        <time>2023-01-26T08:42:53Z</time>
      </trkpt>
      <trkpt lat="48.60774" lon="2.01147">
        <ele>115.1</ele>
        <time>2023-01-26T08:43:00Z</time>
      </trkpt>
      <trkpt lat="48.60782" lon="2.01155">
        <ele>115.9</ele>
        <time>2023-01-26T08:43:07Z</time>
      </trkpt>
      <trkpt lat="48.60791" lon="2.01162">
        <ele>116.8</ele>
        <time>2023-01-26T08:43:14Z</time>
      </trkpt>
      <trkpt lat="48.60799" lon="2.01168">
        <ele>117.6</ele>
        <time>2023-01-26T08:43:21Z</time>
      </trkpt>
      <trkpt lat="48.60809" lon="2.01171">
        <ele>118.4</ele>
        <time>2023-01-26T08:43:28Z</time>
      </trkpt>
      <trkpt lat="48.60818" lon="2.01174">
        <ele>119</ele>
        <time>2023-01-26T08:43:35Z</time>
      </trkpt>
      <trkpt lat="48.60827" lon="2.01178">
        <ele>119.6</ele>
        <time>2023-01-26T08:43:44Z</time>
      </trkpt>
      <trkpt lat="48.60835" lon="2.01184">
        <ele>120</ele>
        <time>2023-01-26T08:43:53Z</time>
      </trkpt>
      <trkpt lat="48.60843" lon="2.0119">
        <ele>120.3</ele>
        <time>2023-01-26T08:44:01Z</time>
      </trkpt>
      <trkpt lat="48.60852" lon="2.01198">
        <ele>120.7</ele>
        <time>2023-01-26T08:44:12Z</time>
      </trkpt>
      <trkpt lat="48.60861" lon="2.01201">
        <ele>121</ele>
        <time>2023-01-26T08:44:19Z</time>
      </trkpt>
      <trkpt lat="48.60869" lon="2.01206">
        <ele>121.3</ele>
        <time>2023-01-26T08:44:25Z</time>
      </trkpt>
      <trkpt lat="48.60879" lon="2.0121">
        <ele>121.7</ele>
        <time>2023-01-26T08:44:31Z</time>
      </trkpt>
      <trkpt lat="48.60888" lon="2.01219">
        <ele>122</ele>
        <time>2023-01-26T08:44:39Z</time>
      </trkpt>
      <trkpt lat="48.60897" lon="2.01225">
        <ele>122</ele>
        <time>2023-01-26T08:44:47Z</time>
      </trkpt>
      <trkpt lat="48.60906" lon="2.0123">
        <ele>122</ele>
        <time>2023-01-26T08:44:54Z</time>
      </trkpt>
      <trkpt lat="48.60913" lon="2.01238">
        <ele>122</ele>
        <time>2023-01-26T08:45:00Z</time>
      </trkpt>
      <trkpt lat="48.6092" lon="2.01246">
        <ele>122.1</ele>
        <time>2023-01-26T08:45:07Z</time>
      </trkpt>
      <trkpt lat="48.6093" lon="2.01252">
        <ele>122.4</ele>
        <time>2023-01-26T08:45:14Z</time>
      </trkpt>
      <trkpt lat="48.60939" lon="2.01257">
        <ele>122.6</ele>
        <time>2023-01-26T08:45:21Z</time>
      </trkpt>
      <trkpt lat="48.60947" lon="2.01262">
        <ele>122.5</ele>
        <time>2023-01-26T08:45:28Z</time>
      </trkpt>
      <trkpt lat="48.60956" lon="2.01268">
        <ele>122.2</ele>
        <time>2023-01-26T08:45:36Z</time>
      </trkpt>
      <trkpt lat="48.60963" lon="2.01276">
        <ele>122</ele>
        <time>2023-01-26T08:45:44Z</time>
      </trkpt>
      <trkpt lat="48.60972" lon="2.01283">
        <ele>121.8</ele>
        <time>2023-01-26T08:45:50Z</time>
      </trkpt>
      <trkpt lat="48.60979" lon="2.01292">
        <ele>121.1</ele>
        <time>2023-01-26T08:45:56Z</time>
      </trkpt>
      <trkpt lat="48.60988" lon="2.01299">
        <ele>120.5</ele>
        <time>2023-01-26T08:46:02Z</time>
      </trkpt>
      <trkpt lat="48.60996" lon="2.01309">
        <ele>120</ele>
        <time>2023-01-26T08:46:09Z</time>
      </trkpt>
      <trkpt lat="48.61004" lon="2.01316">
        <ele>119.5</ele>
        <time>2023-01-26T08:46:20Z</time>
      </trkpt>
      <trkpt lat="48.61012" lon="2.01325">
        <ele>118.9</ele>
        <time>2023-01-26T08:46:26Z</time>
      </trkpt>
      <trkpt lat="48.6102" lon="2.01333">
        <ele>118.3</ele>
        <time>2023-01-26T08:46:32Z</time>
      </trkpt>
      <trkpt lat="48.61028" lon="2.01342">
        <ele>118</ele>
        <time>2023-01-26T08:46:39Z</time>
      </trkpt>
      <trkpt lat="48.61035" lon="2.01351">
        <ele>118</ele>
        <time>2023-01-26T08:46:46Z</time>
      </trkpt>
      <trkpt lat="48.61044" lon="2.0136">
        <ele>118</ele>
        <time>2023-01-26T08:46:53Z</time>
      </trkpt>
      <trkpt lat="48.61053" lon="2.01367">
        <ele>117.8</ele>
        <time>2023-01-26T08:47:00Z</time>
      </trkpt>
      <trkpt lat="48.61061" lon="2.01376">
        <ele>117.5</ele>
        <time>2023-01-26T08:47:08Z</time>
      </trkpt>
      <trkpt lat="48.61069" lon="2.01382">
        <ele>117.3</ele>
        <time>2023-01-26T08:47:16Z</time>
      </trkpt>
      <trkpt lat="48.61078" lon="2.01391">
        <ele>117</ele>
        <time>2023-01-26T08:47:25Z</time>
      </trkpt>
      <trkpt lat="48.61086" lon="2.01399">
        <ele>117</ele>
        <time>2023-01-26T08:47:31Z</time>
      </trkpt>
      <trkpt lat="48.61095" lon="2.01406">
        <ele>117</ele>
        <time>2023-01-26T08:47:37Z</time>
      </trkpt>
      <trkpt lat="48.61103" lon="2.01413">
        <ele>117</ele>
        <time>2023-01-26T08:47:43Z</time>
      </trkpt>
      <trkpt lat="48.61111" lon="2.01419">
        <ele>117</ele>
        <time>2023-01-26T08:47:49Z</time>
      </trkpt>
      <trkpt lat="48.61119" lon="2.01425">
        <ele>117.3</ele>
        <time>2023-01-26T08:47:56Z</time>
      </trkpt>
      <trkpt lat="48.61128" lon="2.01431">
        <ele>117.6</ele>
        <time>2023-01-26T08:48:03Z</time>
      </trkpt>
      <trkpt lat="48.61136" lon="2.01437">
        <ele>117.9</ele>
        <time>2023-01-26T08:48:10Z</time>
      </trkpt>
      <trkpt lat="48.61146" lon="2.01442">
        <ele>118</ele>
        <time>2023-01-26T08:48:17Z</time>
      </trkpt>
      <trkpt lat="48.61156" lon="2.01446">
        <ele>118</ele>
        <time>2023-01-26T08:48:24Z</time>
      </trkpt>
      <trkpt lat="48.61165" lon="2.0145">
        <ele>118</ele>
        <time>2023-01-26T08:48:31Z</time>
      </trkpt>
      <trkpt lat="48.61175" lon="2.01456">
        <ele>118.3</ele>
        <time>2023-01-26T08:48:39Z</time>
      </trkpt>
      <trkpt lat="48.61185" lon="2.01461">
        <ele>118.7</ele>
        <time>2023-01-26T08:48:46Z</time>
      </trkpt>
      <trkpt lat="48.61194" lon="2.01465">
        <ele>119</ele>
        <time>2023-01-26T08:48:53Z</time>
      </trkpt>
      <trkpt lat="48.61203" lon="2.01472">
        <ele>119.3</ele>
        <time>2023-01-26T08:49:00Z</time>
      </trkpt>
      <trkpt lat="48.61212" lon="2.01479">
        <ele>119.5</ele>
        <time>2023-01-26T08:49:08Z</time>
      </trkpt>
      <trkpt lat="48.61222" lon="2.01485">
        <ele>119.5</ele>
        <time>2023-01-26T08:49:15Z</time>
      </trkpt>
      <trkpt lat="48.61231" lon="2.0149">
        <ele>119.8</ele>
        <time>2023-01-26T08:49:22Z</time>
      </trkpt>
      <trkpt lat="48.61239" lon="2.01498">
        <ele>119.8</ele>
        <time>2023-01-26T08:49:30Z</time>
      </trkpt>
      <trkpt lat="48.61248" lon="2.01503">
        <ele>119.9</ele>
        <time>2023-01-26T08:49:36Z</time>
      </trkpt>
      <trkpt lat="48.61256" lon="2.01509">
        <ele>120.1</ele>
        <time>2023-01-26T08:49:44Z</time>
      </trkpt>
      <trkpt lat="48.61266" lon="2.01512">
        <ele>120.3</ele>
        <time>2023-01-26T08:49:51Z</time>
      </trkpt>
      <trkpt lat="48.61275" lon="2.01516">
        <ele>120.4</ele>
        <time>2023-01-26T08:49:57Z</time>
      </trkpt>
      <trkpt lat="48.61284" lon="2.01517">
        <ele>120.4</ele>
        <time>2023-01-26T08:50:03Z</time>
      </trkpt>
      <trkpt lat="48.61293" lon="2.01521">
        <ele>120.2</ele>
        <time>2023-01-26T08:50:11Z</time>
      </trkpt>
      <trkpt lat="48.61303" lon="2.01524">
        <ele>120.1</ele>
        <time>2023-01-26T08:50:17Z</time>
      </trkpt>
      <trkpt lat="48.61312" lon="2.01527">
        <ele>120</ele>
        <time>2023-01-26T08:50:23Z</time>
      </trkpt>
      <trkpt lat="48.61321" lon="2.01534">
        <ele>119.8</ele>
        <time>2023-01-26T08:50:37Z</time>
      </trkpt>
      <trkpt lat="48.61331" lon="2.01536">
        <ele>119.7</ele>
        <time>2023-01-26T08:50:43Z</time>
      </trkpt>
      <trkpt lat="48.61337" lon="2.01547">
        <ele>119.4</ele>
        <time>2023-01-26T08:52:30Z</time>
      </trkpt>
      <trkpt lat="48.61343" lon="2.01538">
        <ele>120</ele>
        <time>2023-01-26T08:54:02Z</time>
      </trkpt>
      <trkpt lat="48.61352" lon="2.01537">
        <ele>120.4</ele>
        <time>2023-01-26T08:54:10Z</time>
      </trkpt>
      <trkpt lat="48.61363" lon="2.01535">
        <ele>120.8</ele>
        <time>2023-01-26T08:54:21Z</time>
      </trkpt>
      <trkpt lat="48.61372" lon="2.01534">
        <ele>121.2</ele>
        <time>2023-01-26T08:54:28Z</time>
      </trkpt>
      <trkpt lat="48.61381" lon="2.01534">
        <ele>121.5</ele>
        <time>2023-01-26T08:54:34Z</time>
      </trkpt>
      <trkpt lat="48.61392" lon="2.01535">
        <ele>121.6</ele>
        <time>2023-01-26T08:54:41Z</time>
      </trkpt>
      <trkpt lat="48.61401" lon="2.01538">
        <ele>121.2</ele>
        <time>2023-01-26T08:54:48Z</time>
      </trkpt>
      <trkpt lat="48.61411" lon="2.01538">
        <ele>120.8</ele>
        <time>2023-01-26T08:54:55Z</time>
      </trkpt>
      <trkpt lat="48.61421" lon="2.01534">
        <ele>120.8</ele>
        <time>2023-01-26T08:55:02Z</time>
      </trkpt>
      <trkpt lat="48.6143" lon="2.01531">
        <ele>120.9</ele>
        <time>2023-01-26T08:55:10Z</time>
      </trkpt>
      <trkpt lat="48.6144" lon="2.01529">
        <ele>120.9</ele>
        <time>2023-01-26T08:55:16Z</time>
      </trkpt>
      <trkpt lat="48.61449" lon="2.01528">
        <ele>121</ele>
        <time>2023-01-26T08:55:22Z</time>
      </trkpt>
      <trkpt lat="48.61459" lon="2.01525">
        <ele>121.1</ele>
        <time>2023-01-26T08:55:29Z</time>
      </trkpt>
      <trkpt lat="48.61469" lon="2.01523">
        <ele>121.2</ele>
        <time>2023-01-26T08:55:37Z</time>
      </trkpt>
      <trkpt lat="48.61479" lon="2.0152">
        <ele>121.3</ele>
        <time>2023-01-26T08:55:45Z</time>
      </trkpt>
      <trkpt lat="48.61489" lon="2.01518">
        <ele>121.4</ele>
        <time>2023-01-26T08:55:53Z</time>
      </trkpt>
      <trkpt lat="48.61498" lon="2.01518">
        <ele>121.3</ele>
        <time>2023-01-26T08:56:00Z</time>
      </trkpt>
      <trkpt lat="48.61509" lon="2.01517">
        <ele>121.4</ele>
        <time>2023-01-26T08:56:06Z</time>
      </trkpt>
      <trkpt lat="48.61518" lon="2.01513">
        <ele>121.5</ele>
        <time>2023-01-26T08:56:12Z</time>
      </trkpt>
      <trkpt lat="48.61528" lon="2.01511">
        <ele>121.6</ele>
        <time>2023-01-26T08:56:19Z</time>
      </trkpt>
      <trkpt lat="48.61537" lon="2.01511">
        <ele>121.4</ele>
        <time>2023-01-26T08:56:26Z</time>
      </trkpt>
      <trkpt lat="48.61547" lon="2.01511">
        <ele>121.2</ele>
        <time>2023-01-26T08:56:32Z</time>
      </trkpt>
      <trkpt lat="48.61557" lon="2.01506">
        <ele>121</ele>
        <time>2023-01-26T08:56:38Z</time>
      </trkpt>
      <trkpt lat="48.61566" lon="2.01501">
        <ele>121</ele>
        <time>2023-01-26T08:56:45Z</time>
      </trkpt>
      <trkpt lat="48.61573" lon="2.01491">
        <ele>121.1</ele>
        <time>2023-01-26T08:56:53Z</time>
      </trkpt>
      <trkpt lat="48.61581" lon="2.01482">
        <ele>121.1</ele>
        <time>2023-01-26T08:56:59Z</time>
      </trkpt>
      <trkpt lat="48.61588" lon="2.01471">
        <ele>120.9</ele>
        <time>2023-01-26T08:57:06Z</time>
      </trkpt>
      <trkpt lat="48.61596" lon="2.01462">
        <ele>120.7</ele>
        <time>2023-01-26T08:57:13Z</time>
      </trkpt>
      <trkpt lat="48.61605" lon="2.01457">
        <ele>120.4</ele>
        <time>2023-01-26T08:57:21Z</time>
      </trkpt>
      <trkpt lat="48.61613" lon="2.0145">
        <ele>120</ele>
        <time>2023-01-26T08:57:28Z</time>
      </trkpt>
      <trkpt lat="48.61619" lon="2.01439">
        <ele>120.2</ele>
        <time>2023-01-26T08:57:34Z</time>
      </trkpt>
      <trkpt lat="48.61627" lon="2.0143">
        <ele>120.5</ele>
        <time>2023-01-26T08:57:42Z</time>
      </trkpt>
      <trkpt lat="48.61633" lon="2.01419">
        <ele>120.9</ele>
        <time>2023-01-26T08:57:49Z</time>
      </trkpt>
      <trkpt lat="48.61641" lon="2.01409">
        <ele>121</ele>
        <time>2023-01-26T08:57:55Z</time>
      </trkpt>
      <trkpt lat="48.61649" lon="2.01401">
        <ele>121</ele>
        <time>2023-01-26T08:58:01Z</time>
      </trkpt>
      <trkpt lat="48.61656" lon="2.0139">
        <ele>121</ele>
        <time>2023-01-26T08:58:08Z</time>
      </trkpt>
      <trkpt lat="48.61662" lon="2.01377">
        <ele>121.4</ele>
        <time>2023-01-26T08:58:15Z</time>
      </trkpt>
      <trkpt lat="48.6167" lon="2.01368">
        <ele>121.8</ele>
        <time>2023-01-26T08:58:21Z</time>
      </trkpt>
      <trkpt lat="48.61678" lon="2.0136">
        <ele>122</ele>
        <time>2023-01-26T08:58:28Z</time>
      </trkpt>
      <trkpt lat="48.61685" lon="2.0135">
        <ele>122</ele>
        <time>2023-01-26T08:58:35Z</time>
      </trkpt>
      <trkpt lat="48.61691" lon="2.01338">
        <ele>122</ele>
        <time>2023-01-26T08:58:42Z</time>
      </trkpt>
      <trkpt lat="48.61698" lon="2.01326">
        <ele>122.1</ele>
        <time>2023-01-26T08:58:49Z</time>
      </trkpt>
      <trkpt lat="48.61706" lon="2.01316">
        <ele>122.4</ele>
        <time>2023-01-26T08:58:56Z</time>
      </trkpt>
      <trkpt lat="48.61713" lon="2.01306">
        <ele>122.7</ele>
        <time>2023-01-26T08:59:03Z</time>
      </trkpt>
      <trkpt lat="48.61719" lon="2.01294">
        <ele>122.9</ele>
        <time>2023-01-26T08:59:10Z</time>
      </trkpt>
      <trkpt lat="48.61726" lon="2.01286">
        <ele>123.1</ele>
        <time>2023-01-26T08:59:16Z</time>
      </trkpt>
      <trkpt lat="48.61734" lon="2.01277">
        <ele>123.4</ele>
        <time>2023-01-26T08:59:24Z</time>
      </trkpt>
      <trkpt lat="48.61741" lon="2.01266">
        <ele>123.7</ele>
        <time>2023-01-26T08:59:32Z</time>
      </trkpt>
      <trkpt lat="48.61749" lon="2.01257">
        <ele>124</ele>
        <time>2023-01-26T08:59:39Z</time>
      </trkpt>
      <trkpt lat="48.61759" lon="2.01251">
        <ele>124</ele>
        <time>2023-01-26T08:59:46Z</time>
      </trkpt>
      <trkpt lat="48.61767" lon="2.01244">
        <ele>124</ele>
        <time>2023-01-26T08:59:52Z</time>
      </trkpt>
      <trkpt lat="48.61775" lon="2.01236">
        <ele>124</ele>
        <time>2023-01-26T08:59:59Z</time>
      </trkpt>
      <trkpt lat="48.61784" lon="2.01232">
        <ele>124</ele>
        <time>2023-01-26T09:00:06Z</time>
      </trkpt>
      <trkpt lat="48.61793" lon="2.01227">
        <ele>124</ele>
        <time>2023-01-26T09:00:11Z</time>
      </trkpt>
      <trkpt lat="48.61801" lon="2.01218">
        <ele>124</ele>
        <time>2023-01-26T09:00:18Z</time>
      </trkpt>
      <trkpt lat="48.6181" lon="2.01211">
        <ele>123.9</ele>
        <time>2023-01-26T09:00:25Z</time>
      </trkpt>
      <trkpt lat="48.61819" lon="2.01207">
        <ele>123.7</ele>
        <time>2023-01-26T09:00:31Z</time>
      </trkpt>
      <trkpt lat="48.61828" lon="2.01207">
        <ele>123.6</ele>
        <time>2023-01-26T09:00:38Z</time>
      </trkpt>
      <trkpt lat="48.61838" lon="2.01209">
        <ele>123.5</ele>
        <time>2023-01-26T09:00:45Z</time>
      </trkpt>
      <trkpt lat="48.61848" lon="2.0121">
        <ele>123.6</ele>
        <time>2023-01-26T09:00:51Z</time>
      </trkpt>
      <trkpt lat="48.61857" lon="2.0121">
        <ele>123.6</ele>
        <time>2023-01-26T09:00:57Z</time>
      </trkpt>
      <trkpt lat="48.61867" lon="2.01212">
        <ele>123.8</ele>
        <time>2023-01-26T09:01:03Z</time>
      </trkpt>
      <trkpt lat="48.61877" lon="2.01214">
        <ele>124.3</ele>
        <time>2023-01-26T09:01:10Z</time>
      </trkpt>
      <trkpt lat="48.61887" lon="2.01217">
        <ele>124.7</ele>
        <time>2023-01-26T09:01:18Z</time>
      </trkpt>
      <trkpt lat="48.61896" lon="2.01217">
        <ele>124.8</ele>
        <time>2023-01-26T09:01:23Z</time>
      </trkpt>
      <trkpt lat="48.61906" lon="2.01218">
        <ele>124.9</ele>
        <time>2023-01-26T09:01:31Z</time>
      </trkpt>
      <trkpt lat="48.61915" lon="2.01217">
        <ele>124.8</ele>
        <time>2023-01-26T09:01:38Z</time>
      </trkpt>
      <trkpt lat="48.61925" lon="2.01212">
        <ele>124.6</ele>
        <time>2023-01-26T09:01:47Z</time>
      </trkpt>
      <trkpt lat="48.61934" lon="2.01203">
        <ele>124.3</ele>
        <time>2023-01-26T09:01:57Z</time>
      </trkpt>
      <trkpt lat="48.61943" lon="2.01196">
        <ele>124.1</ele>
        <time>2023-01-26T09:02:02Z</time>
      </trkpt>
      <trkpt lat="48.6195" lon="2.01188">
        <ele>124.1</ele>
        <time>2023-01-26T09:02:09Z</time>
      </trkpt>
      <trkpt lat="48.61959" lon="2.0118">
        <ele>124.5</ele>
        <time>2023-01-26T09:02:15Z</time>
      </trkpt>
      <trkpt lat="48.61967" lon="2.01172">
        <ele>124.8</ele>
        <time>2023-01-26T09:02:22Z</time>
      </trkpt>
      <trkpt lat="48.61975" lon="2.01164">
        <ele>125.2</ele>
        <time>2023-01-26T09:02:29Z</time>
      </trkpt>
      <trkpt lat="48.61983" lon="2.01156">
        <ele>125.3</ele>
        <time>2023-01-26T09:02:35Z</time>
      </trkpt>
      <trkpt lat="48.61993" lon="2.0115">
        <ele>125.1</ele>
        <time>2023-01-26T09:02:43Z</time>
      </trkpt>
      <trkpt lat="48.61999" lon="2.0116">
        <ele>126.2</ele>
        <time>2023-01-26T09:03:16Z</time>
      </trkpt>
      <trkpt lat="48.62002" lon="2.01173">
        <ele>127.2</ele>
        <time>2023-01-26T09:03:24Z</time>
      </trkpt>
      <trkpt lat="48.62009" lon="2.01183">
        <ele>127.6</ele>
        <time>2023-01-26T09:03:30Z</time>
      </trkpt>
      <trkpt lat="48.62016" lon="2.01194">
        <ele>128</ele>
        <time>2023-01-26T09:03:36Z</time>
      </trkpt>
      <trkpt lat="48.62012" lon="2.01207">
        <ele>128</ele>
        <time>2023-01-26T09:03:46Z</time>
      </trkpt>
      <trkpt lat="48.62014" lon="2.01221">
        <ele>128</ele>
        <time>2023-01-26T09:03:55Z</time>
      </trkpt>
      <trkpt lat="48.62019" lon="2.01233">
        <ele>128</ele>
        <time>2023-01-26T09:04:02Z</time>
      </trkpt>
      <trkpt lat="48.62025" lon="2.01244">
        <ele>128</ele>
        <time>2023-01-26T09:04:10Z</time>
      </trkpt>
      <trkpt lat="48.62033" lon="2.01255">
        <ele>127.7</ele>
        <time>2023-01-26T09:04:17Z</time>
      </trkpt>
      <trkpt lat="48.6204" lon="2.01263">
        <ele>127.1</ele>
        <time>2023-01-26T09:04:23Z</time>
      </trkpt>
      <trkpt lat="48.62048" lon="2.01275">
        <ele>126.4</ele>
        <time>2023-01-26T09:04:31Z</time>
      </trkpt>
      <trkpt lat="48.62053" lon="2.01286">
        <ele>125.8</ele>
        <time>2023-01-26T09:04:37Z</time>
      </trkpt>
      <trkpt lat="48.62057" lon="2.013">
        <ele>125.2</ele>
        <time>2023-01-26T09:04:44Z</time>
      </trkpt>
      <trkpt lat="48.62063" lon="2.01311">
        <ele>124.8</ele>
        <time>2023-01-26T09:04:51Z</time>
      </trkpt>
      <trkpt lat="48.62069" lon="2.01323">
        <ele>124.4</ele>
        <time>2023-01-26T09:04:58Z</time>
      </trkpt>
      <trkpt lat="48.62074" lon="2.01335">
        <ele>124</ele>
        <time>2023-01-26T09:05:05Z</time>
      </trkpt>
      <trkpt lat="48.62079" lon="2.01348">
        <ele>123.6</ele>
        <time>2023-01-26T09:05:12Z</time>
      </trkpt>
      <trkpt lat="48.62083" lon="2.0136">
        <ele>123</ele>
        <time>2023-01-26T09:05:19Z</time>
      </trkpt>
      <trkpt lat="48.62088" lon="2.01371">
        <ele>123</ele>
        <time>2023-01-26T09:05:26Z</time>
      </trkpt>
      <trkpt lat="48.62095" lon="2.01381">
        <ele>123</ele>
        <time>2023-01-26T09:05:32Z</time>
      </trkpt>
      <trkpt lat="48.621" lon="2.01393">
        <ele>123</ele>
        <time>2023-01-26T09:05:39Z</time>
      </trkpt>
      <trkpt lat="48.62106" lon="2.01406">
        <ele>123</ele>
        <time>2023-01-26T09:05:46Z</time>
      </trkpt>
      <trkpt lat="48.62113" lon="2.01415">
        <ele>123</ele>
        <time>2023-01-26T09:05:52Z</time>
      </trkpt>
      <trkpt lat="48.62119" lon="2.01427">
        <ele>123</ele>
        <time>2023-01-26T09:05:59Z</time>
      </trkpt>
      <trkpt lat="48.62125" lon="2.01437">
        <ele>123</ele>
        <time>2023-01-26T09:06:06Z</time>
      </trkpt>
      <trkpt lat="48.62132" lon="2.01448">
        <ele>122.9</ele>
        <time>2023-01-26T09:06:13Z</time>
      </trkpt>
      <trkpt lat="48.62137" lon="2.01461">
        <ele>122.4</ele>
        <time>2023-01-26T09:06:20Z</time>
      </trkpt>
      <trkpt lat="48.62143" lon="2.01471">
        <ele>122.2</ele>
        <time>2023-01-26T09:06:27Z</time>
      </trkpt>
      <trkpt lat="48.62147" lon="2.01485">
        <ele>122.2</ele>
        <time>2023-01-26T09:06:35Z</time>
      </trkpt>
      <trkpt lat="48.62154" lon="2.01496">
        <ele>122.1</ele>
        <time>2023-01-26T09:06:41Z</time>
      </trkpt>
      <trkpt lat="48.62158" lon="2.01509">
        <ele>122</ele>
        <time>2023-01-26T09:06:49Z</time>
      </trkpt>
      <trkpt lat="48.62165" lon="2.01521">
        <ele>122</ele>
        <time>2023-01-26T09:06:55Z</time>
      </trkpt>
      <trkpt lat="48.6217" lon="2.01533">
        <ele>122.1</ele>
        <time>2023-01-26T09:07:02Z</time>
      </trkpt>
      <trkpt lat="48.62177" lon="2.01544">
        <ele>122.4</ele>
        <time>2023-01-26T09:07:09Z</time>
      </trkpt>
      <trkpt lat="48.62181" lon="2.01557">
        <ele>122.5</ele>
        <time>2023-01-26T09:07:16Z</time>
      </trkpt>
      <trkpt lat="48.62183" lon="2.0157">
        <ele>122.6</ele>
        <time>2023-01-26T09:07:24Z</time>
      </trkpt>
      <trkpt lat="48.6219" lon="2.01581">
        <ele>122.8</ele>
        <time>2023-01-26T09:07:30Z</time>
      </trkpt>
      <trkpt lat="48.62193" lon="2.01595">
        <ele>122.5</ele>
        <time>2023-01-26T09:07:38Z</time>
      </trkpt>
      <trkpt lat="48.622" lon="2.01605">
        <ele>122.4</ele>
        <time>2023-01-26T09:07:44Z</time>
      </trkpt>
      <trkpt lat="48.62208" lon="2.01615">
        <ele>122.5</ele>
        <time>2023-01-26T09:07:52Z</time>
      </trkpt>
      <trkpt lat="48.62217" lon="2.01617">
        <ele>122.8</ele>
        <time>2023-01-26T09:08:24Z</time>
      </trkpt>
      <trkpt lat="48.62225" lon="2.01625">
        <ele>123</ele>
        <time>2023-01-26T09:08:35Z</time>
      </trkpt>
      <trkpt lat="48.62235" lon="2.01628">
        <ele>123</ele>
        <time>2023-01-26T09:08:43Z</time>
      </trkpt>
      <trkpt lat="48.62245" lon="2.01629">
        <ele>123</ele>
        <time>2023-01-26T09:08:54Z</time>
      </trkpt>
      <trkpt lat="48.62251" lon="2.01639">
        <ele>123</ele>
        <time>2023-01-26T09:09:17Z</time>
      </trkpt>
      <trkpt lat="48.62259" lon="2.01646">
        <ele>123</ele>
        <time>2023-01-26T09:09:36Z</time>
      </trkpt>
      <trkpt lat="48.62268" lon="2.01653">
        <ele>123</ele>
        <time>2023-01-26T09:09:43Z</time>
      </trkpt>
      <trkpt lat="48.62276" lon="2.01663">
        <ele>123</ele>
        <time>2023-01-26T09:09:50Z</time>
      </trkpt>
      <trkpt lat="48.62281" lon="2.01675">
        <ele>123.1</ele>
        <time>2023-01-26T09:09:57Z</time>
      </trkpt>
      <trkpt lat="48.62286" lon="2.01687">
        <ele>123.1</ele>
        <time>2023-01-26T09:10:05Z</time>
      </trkpt>
      <trkpt lat="48.6229" lon="2.017">
        <ele>123</ele>
        <time>2023-01-26T09:10:15Z</time>
      </trkpt>
      <trkpt lat="48.62295" lon="2.01712">
        <ele>123</ele>
        <time>2023-01-26T09:10:22Z</time>
      </trkpt>
      <trkpt lat="48.623" lon="2.01725">
        <ele>123.1</ele>
        <time>2023-01-26T09:10:29Z</time>
      </trkpt>
      <trkpt lat="48.62306" lon="2.01738">
        <ele>123.6</ele>
        <time>2023-01-26T09:10:36Z</time>
      </trkpt>
      <trkpt lat="48.62315" lon="2.01745">
        <ele>123.9</ele>
        <time>2023-01-26T09:10:42Z</time>
      </trkpt>
      <trkpt lat="48.62324" lon="2.01751">
        <ele>124</ele>
        <time>2023-01-26T09:10:49Z</time>
      </trkpt>
      <trkpt lat="48.62334" lon="2.01754">
        <ele>124.2</ele>
        <time>2023-01-26T09:10:54Z</time>
      </trkpt>
      <trkpt lat="48.62344" lon="2.01756">
        <ele>124.5</ele>
        <time>2023-01-26T09:11:00Z</time>
      </trkpt>
      <trkpt lat="48.62354" lon="2.01756">
        <ele>124.8</ele>
        <time>2023-01-26T09:11:06Z</time>
      </trkpt>
      <trkpt lat="48.62365" lon="2.01757">
        <ele>125</ele>
        <time>2023-01-26T09:11:12Z</time>
      </trkpt>
      <trkpt lat="48.62374" lon="2.01754">
        <ele>125</ele>
        <time>2023-01-26T09:11:18Z</time>
      </trkpt>
      <trkpt lat="48.62383" lon="2.01753">
        <ele>125</ele>
        <time>2023-01-26T09:11:25Z</time>
      </trkpt>
      <trkpt lat="48.62393" lon="2.01755">
        <ele>125.2</ele>
        <time>2023-01-26T09:11:32Z</time>
      </trkpt>
      <trkpt lat="48.62403" lon="2.01754">
        <ele>125.5</ele>
        <time>2023-01-26T09:11:41Z</time>
      </trkpt>
      <trkpt lat="48.62412" lon="2.01756">
        <ele>125.8</ele>
        <time>2023-01-26T09:11:50Z</time>
      </trkpt>
      <trkpt lat="48.62421" lon="2.01757">
        <ele>126.3</ele>
        <time>2023-01-26T09:11:59Z</time>
      </trkpt>
      <trkpt lat="48.62431" lon="2.01757">
        <ele>126.9</ele>
        <time>2023-01-26T09:12:08Z</time>
      </trkpt>
      <trkpt lat="48.6244" lon="2.01754">
        <ele>127.6</ele>
        <time>2023-01-26T09:12:18Z</time>
      </trkpt>
      <trkpt lat="48.6245" lon="2.01752">
        <ele>128.2</ele>
        <time>2023-01-26T09:12:25Z</time>
      </trkpt>
      <trkpt lat="48.62459" lon="2.01746">
        <ele>128.5</ele>
        <time>2023-01-26T09:12:32Z</time>
      </trkpt>
      <trkpt lat="48.62468" lon="2.01744">
        <ele>128.9</ele>
        <time>2023-01-26T09:12:39Z</time>
      </trkpt>
      <trkpt lat="48.62477" lon="2.0174">
        <ele>129.2</ele>
        <time>2023-01-26T09:12:47Z</time>
      </trkpt>
      <trkpt lat="48.62487" lon="2.01737">
        <ele>129.5</ele>
        <time>2023-01-26T09:12:54Z</time>
      </trkpt>
      <trkpt lat="48.62496" lon="2.01735">
        <ele>129.8</ele>
        <time>2023-01-26T09:13:00Z</time>
      </trkpt>
      <trkpt lat="48.62506" lon="2.01732">
        <ele>130.4</ele>
        <time>2023-01-26T09:13:06Z</time>
      </trkpt>
      <trkpt lat="48.62515" lon="2.0173">
        <ele>130.8</ele>
        <time>2023-01-26T09:13:13Z</time>
      </trkpt>
      <trkpt lat="48.62524" lon="2.01726">
        <ele>131.1</ele>
        <time>2023-01-26T09:13:19Z</time>
      </trkpt>
      <trkpt lat="48.62531" lon="2.01716">
        <ele>131.2</ele>
        <time>2023-01-26T09:13:27Z</time>
      </trkpt>
      <trkpt lat="48.62536" lon="2.01703">
        <ele>131.4</ele>
        <time>2023-01-26T09:13:34Z</time>
      </trkpt>
      <trkpt lat="48.62541" lon="2.0169">
        <ele>131.5</ele>
        <time>2023-01-26T09:13:41Z</time>
      </trkpt>
      <trkpt lat="48.62546" lon="2.01678">
        <ele>131.6</ele>
        <time>2023-01-26T09:13:48Z</time>
      </trkpt>
      <trkpt lat="48.6255" lon="2.01665">
        <ele>131.8</ele>
        <time>2023-01-26T09:13:55Z</time>
      </trkpt>
      <trkpt lat="48.62558" lon="2.01657">
        <ele>132.5</ele>
        <time>2023-01-26T09:14:05Z</time>
      </trkpt>
      <trkpt lat="48.62566" lon="2.0165">
        <ele>133.1</ele>
        <time>2023-01-26T09:14:12Z</time>
      </trkpt>
      <trkpt lat="48.62574" lon="2.01641">
        <ele>133.7</ele>
        <time>2023-01-26T09:14:20Z</time>
      </trkpt>
      <trkpt lat="48.62583" lon="2.01635">
        <ele>134</ele>
        <time>2023-01-26T09:14:26Z</time>
      </trkpt>
      <trkpt lat="48.62591" lon="2.0163">
        <ele>134.5</ele>
        <time>2023-01-26T09:14:32Z</time>
      </trkpt>
      <trkpt lat="48.62601" lon="2.01625">
        <ele>135</ele>
        <time>2023-01-26T09:14:39Z</time>
      </trkpt>
      <trkpt lat="48.62609" lon="2.01619">
        <ele>135.2</ele>
        <time>2023-01-26T09:14:46Z</time>
      </trkpt>
      <trkpt lat="48.62618" lon="2.01616">
        <ele>135.5</ele>
        <time>2023-01-26T09:14:53Z</time>
      </trkpt>
      <trkpt lat="48.62625" lon="2.01606">
        <ele>135.4</ele>
        <time>2023-01-26T09:15:01Z</time>
      </trkpt>
      <trkpt lat="48.62628" lon="2.01592">
        <ele>135.2</ele>
        <time>2023-01-26T09:15:07Z</time>
      </trkpt>
      <trkpt lat="48.62626" lon="2.01577">
        <ele>135.1</ele>
        <time>2023-01-26T09:15:14Z</time>
      </trkpt>
      <trkpt lat="48.62626" lon="2.01562">
        <ele>135.4</ele>
        <time>2023-01-26T09:15:21Z</time>
      </trkpt>
      <trkpt lat="48.62624" lon="2.01547">
        <ele>135.8</ele>
        <time>2023-01-26T09:15:28Z</time>
      </trkpt>
      <trkpt lat="48.62618" lon="2.01533">
        <ele>136.5</ele>
        <time>2023-01-26T09:15:35Z</time>
      </trkpt>
      <trkpt lat="48.62618" lon="2.01519">
        <ele>137.1</ele>
        <time>2023-01-26T09:15:48Z</time>
      </trkpt>
      <trkpt lat="48.62616" lon="2.01505">
        <ele>137.6</ele>
        <time>2023-01-26T09:15:55Z</time>
      </trkpt>
      <trkpt lat="48.62612" lon="2.01492">
        <ele>138.3</ele>
        <time>2023-01-26T09:16:02Z</time>
      </trkpt>
      <trkpt lat="48.62609" lon="2.01478">
        <ele>138.8</ele>
        <time>2023-01-26T09:16:09Z</time>
      </trkpt>
      <trkpt lat="48.62604" lon="2.01466">
        <ele>139.2</ele>
        <time>2023-01-26T09:16:16Z</time>
      </trkpt>
      <trkpt lat="48.62599" lon="2.01454">
        <ele>139.7</ele>
        <time>2023-01-26T09:16:22Z</time>
      </trkpt>
      <trkpt lat="48.62594" lon="2.01441">
        <ele>140.1</ele>
        <time>2023-01-26T09:16:29Z</time>
      </trkpt>
      <trkpt lat="48.6259" lon="2.01429">
        <ele>140.6</ele>
        <time>2023-01-26T09:16:37Z</time>
      </trkpt>
      <trkpt lat="48.62587" lon="2.01416">
        <ele>141</ele>
        <time>2023-01-26T09:18:26Z</time>
      </trkpt>
      <trkpt lat="48.62582" lon="2.01402">
        <ele>141</ele>
        <time>2023-01-26T09:18:33Z</time>
      </trkpt>
      <trkpt lat="48.6258" lon="2.01389">
        <ele>140.9</ele>
        <time>2023-01-26T09:18:40Z</time>
      </trkpt>
      <trkpt lat="48.62577" lon="2.01375">
        <ele>140.4</ele>
        <time>2023-01-26T09:18:47Z</time>
      </trkpt>
      <trkpt lat="48.62573" lon="2.01361">
        <ele>140</ele>
        <time>2023-01-26T09:18:53Z</time>
      </trkpt>
      <trkpt lat="48.6257" lon="2.01348">
        <ele>139.5</ele>
        <time>2023-01-26T09:19:00Z</time>
      </trkpt>
      <trkpt lat="48.6257" lon="2.01332">
        <ele>139</ele>
        <time>2023-01-26T09:19:07Z</time>
      </trkpt>
      <trkpt lat="48.62574" lon="2.0132">
        <ele>138.5</ele>
        <time>2023-01-26T09:19:13Z</time>
      </trkpt>
      <trkpt lat="48.62581" lon="2.0131">
        <ele>138.2</ele>
        <time>2023-01-26T09:19:21Z</time>
      </trkpt>
      <trkpt lat="48.6259" lon="2.01303">
        <ele>137.9</ele>
        <time>2023-01-26T09:19:28Z</time>
      </trkpt>
      <trkpt lat="48.62599" lon="2.01298">
        <ele>137.6</ele>
        <time>2023-01-26T09:19:34Z</time>
      </trkpt>
      <trkpt lat="48.62608" lon="2.01295">
        <ele>137.3</ele>
        <time>2023-01-26T09:19:42Z</time>
      </trkpt>
      <trkpt lat="48.62617" lon="2.01296">
        <ele>137.2</ele>
        <time>2023-01-26T09:19:50Z</time>
      </trkpt>
      <trkpt lat="48.62627" lon="2.01301">
        <ele>137.5</ele>
        <time>2023-01-26T09:19:57Z</time>
      </trkpt>
      <trkpt lat="48.62637" lon="2.01302">
        <ele>137.6</ele>
        <time>2023-01-26T09:20:03Z</time>
      </trkpt>
      <trkpt lat="48.62647" lon="2.01303">
        <ele>137.7</ele>
        <time>2023-01-26T09:20:10Z</time>
      </trkpt>
      <trkpt lat="48.62657" lon="2.01301">
        <ele>137.6</ele>
        <time>2023-01-26T09:20:15Z</time>
      </trkpt>
      <trkpt lat="48.62666" lon="2.01296">
        <ele>136.9</ele>
        <time>2023-01-26T09:20:21Z</time>
      </trkpt>
      <trkpt lat="48.62673" lon="2.01287">
        <ele>136.6</ele>
        <time>2023-01-26T09:20:28Z</time>
      </trkpt>
      <trkpt lat="48.62679" lon="2.01277">
        <ele>136.3</ele>
        <time>2023-01-26T09:20:37Z</time>
      </trkpt>
      <trkpt lat="48.62679" lon="2.01262">
        <ele>135</ele>
        <time>2023-01-26T09:20:45Z</time>
      </trkpt>
      <trkpt lat="48.62683" lon="2.01248">
        <ele>134.1</ele>
        <time>2023-01-26T09:20:52Z</time>
      </trkpt>
      <trkpt lat="48.62688" lon="2.01236">
        <ele>134</ele>
        <time>2023-01-26T09:20:59Z</time>
      </trkpt>
      <trkpt lat="48.62691" lon="2.01223">
        <ele>133.8</ele>
        <time>2023-01-26T09:21:05Z</time>
      </trkpt>
      <trkpt lat="48.62694" lon="2.01208">
        <ele>133</ele>
        <time>2023-01-26T09:21:12Z</time>
      </trkpt>
      <trkpt lat="48.62699" lon="2.01196">
        <ele>132.5</ele>
        <time>2023-01-26T09:21:18Z</time>
      </trkpt>
      <trkpt lat="48.62705" lon="2.01184">
        <ele>132.8</ele>
        <time>2023-01-26T09:21:24Z</time>
      </trkpt>
      <trkpt lat="48.62713" lon="2.01174">
        <ele>133</ele>
        <time>2023-01-26T09:21:31Z</time>
      </trkpt>
      <trkpt lat="48.62722" lon="2.01167">
        <ele>133</ele>
        <time>2023-01-26T09:21:38Z</time>
      </trkpt>
      <trkpt lat="48.6273" lon="2.01159">
        <ele>132.6</ele>
        <time>2023-01-26T09:21:45Z</time>
      </trkpt>
      <trkpt lat="48.62734" lon="2.01145">
        <ele>131.5</ele>
        <time>2023-01-26T09:21:52Z</time>
      </trkpt>
      <trkpt lat="48.62742" lon="2.01138">
        <ele>131</ele>
        <time>2023-01-26T09:21:58Z</time>
      </trkpt>
      <trkpt lat="48.62752" lon="2.01132">
        <ele>130.5</ele>
        <time>2023-01-26T09:22:04Z</time>
      </trkpt>
      <trkpt lat="48.62761" lon="2.01129">
        <ele>130.3</ele>
        <time>2023-01-26T09:22:12Z</time>
      </trkpt>
      <trkpt lat="48.6277" lon="2.01131">
        <ele>130.4</ele>
        <time>2023-01-26T09:22:19Z</time>
      </trkpt>
      <trkpt lat="48.62779" lon="2.01135">
        <ele>130.8</ele>
        <time>2023-01-26T09:22:26Z</time>
      </trkpt>
      <trkpt lat="48.62788" lon="2.01139">
        <ele>131.4</ele>
        <time>2023-01-26T09:22:34Z</time>
      </trkpt>
      <trkpt lat="48.62798" lon="2.01141">
        <ele>131.8</ele>
        <time>2023-01-26T09:22:43Z</time>
      </trkpt>
      <trkpt lat="48.62807" lon="2.0114">
        <ele>132.2</ele>
        <time>2023-01-26T09:22:52Z</time>
      </trkpt>
      <trkpt lat="48.62817" lon="2.01135">
        <ele>133.1</ele>
        <time>2023-01-26T09:23:01Z</time>
      </trkpt>
      <trkpt lat="48.62826" lon="2.0113">
        <ele>133.9</ele>
        <time>2023-01-26T09:23:08Z</time>
      </trkpt>
      <trkpt lat="48.62834" lon="2.01123">
        <ele>134.5</ele>
        <time>2023-01-26T09:23:15Z</time>
      </trkpt>
      <trkpt lat="48.62843" lon="2.01115">
        <ele>134.8</ele>
        <time>2023-01-26T09:23:22Z</time>
      </trkpt>
      <trkpt lat="48.6285" lon="2.01106">
        <ele>134.8</ele>
        <time>2023-01-26T09:23:31Z</time>
      </trkpt>
      <trkpt lat="48.62856" lon="2.01093">
        <ele>134.3</ele>
        <time>2023-01-26T09:23:37Z</time>
      </trkpt>
      <trkpt lat="48.62861" lon="2.0108">
        <ele>133.9</ele>
        <time>2023-01-26T09:23:43Z</time>
      </trkpt>
      <trkpt lat="48.62868" lon="2.01069">
        <ele>134.6</ele>
        <time>2023-01-26T09:23:50Z</time>
      </trkpt>
      <trkpt lat="48.62874" lon="2.01057">
        <ele>135</ele>
        <time>2023-01-26T09:23:59Z</time>
      </trkpt>
      <trkpt lat="48.62876" lon="2.01044">
        <ele>134.5</ele>
        <time>2023-01-26T09:24:05Z</time>
      </trkpt>
      <trkpt lat="48.62879" lon="2.01029">
        <ele>134</ele>
        <time>2023-01-26T09:24:12Z</time>
      </trkpt>
      <trkpt lat="48.62883" lon="2.01015">
        <ele>133.9</ele>
        <time>2023-01-26T09:24:20Z</time>
      </trkpt>
      <trkpt lat="48.62884" lon="2.01">
        <ele>133.5</ele>
        <time>2023-01-26T09:24:27Z</time>
      </trkpt>
      <trkpt lat="48.62889" lon="2.00988">
        <ele>133.1</ele>
        <time>2023-01-26T09:24:34Z</time>
      </trkpt>
      <trkpt lat="48.62894" lon="2.00976">
        <ele>132.7</ele>
        <time>2023-01-26T09:24:42Z</time>
      </trkpt>
      <trkpt lat="48.62898" lon="2.00962">
        <ele>131.5</ele>
        <time>2023-01-26T09:24:49Z</time>
      </trkpt>
      <trkpt lat="48.62903" lon="2.0095">
        <ele>130.6</ele>
        <time>2023-01-26T09:25:00Z</time>
      </trkpt>
      <trkpt lat="48.62911" lon="2.00942">
        <ele>130.3</ele>
        <time>2023-01-26T09:25:07Z</time>
      </trkpt>
      <trkpt lat="48.62919" lon="2.00935">
        <ele>130.2</ele>
        <time>2023-01-26T09:25:12Z</time>
      </trkpt>
      <trkpt lat="48.62928" lon="2.00941">
        <ele>131.7</ele>
        <time>2023-01-26T09:25:20Z</time>
      </trkpt>
      <trkpt lat="48.62934" lon="2.00952">
        <ele>134</ele>
        <time>2023-01-26T09:25:31Z</time>
      </trkpt>
      <trkpt lat="48.62944" lon="2.00955">
        <ele>135.9</ele>
        <time>2023-01-26T09:25:42Z</time>
      </trkpt>
      <trkpt lat="48.62953" lon="2.00955">
        <ele>136.3</ele>
        <time>2023-01-26T09:25:51Z</time>
      </trkpt>
      <trkpt lat="48.62962" lon="2.00959">
        <ele>137.6</ele>
        <time>2023-01-26T09:25:58Z</time>
      </trkpt>
      <trkpt lat="48.6297" lon="2.00967">
        <ele>139.7</ele>
        <time>2023-01-26T09:26:07Z</time>
      </trkpt>
      <trkpt lat="48.62979" lon="2.00971">
        <ele>140.5</ele>
        <time>2023-01-26T09:26:16Z</time>
      </trkpt>
      <trkpt lat="48.62988" lon="2.00969">
        <ele>139.9</ele>
        <time>2023-01-26T09:26:23Z</time>
      </trkpt>
      <trkpt lat="48.62996" lon="2.00963">
        <ele>138.4</ele>
        <time>2023-01-26T09:26:32Z</time>
      </trkpt>
      <trkpt lat="48.63006" lon="2.00963">
        <ele>138.1</ele>
        <time>2023-01-26T09:26:43Z</time>
      </trkpt>
      <trkpt lat="48.63015" lon="2.00957">
        <ele>137.1</ele>
        <time>2023-01-26T09:26:51Z</time>
      </trkpt>
      <trkpt lat="48.63019" lon="2.00943">
        <ele>134.9</ele>
        <time>2023-01-26T09:26:59Z</time>
      </trkpt>
      <trkpt lat="48.63022" lon="2.00931">
        <ele>133.9</ele>
        <time>2023-01-26T09:27:07Z</time>
      </trkpt>
      <trkpt lat="48.6303" lon="2.00922">
        <ele>133.5</ele>
        <time>2023-01-26T09:30:42Z</time>
      </trkpt>
      <trkpt lat="48.63033" lon="2.00908">
        <ele>133.4</ele>
        <time>2023-01-26T09:30:49Z</time>
      </trkpt>
      <trkpt lat="48.63037" lon="2.00894">
        <ele>133.9</ele>
        <time>2023-01-26T09:30:57Z</time>
      </trkpt>
      <trkpt lat="48.63039" lon="2.0088">
        <ele>134.6</ele>
        <time>2023-01-26T09:31:04Z</time>
      </trkpt>
      <trkpt lat="48.63041" lon="2.00867">
        <ele>135.5</ele>
        <time>2023-01-26T09:31:11Z</time>
      </trkpt>
      <trkpt lat="48.63044" lon="2.00853">
        <ele>137.1</ele>
        <time>2023-01-26T09:31:20Z</time>
      </trkpt>
      <trkpt lat="48.63046" lon="2.00839">
        <ele>138.8</ele>
        <time>2023-01-26T09:31:29Z</time>
      </trkpt>
      <trkpt lat="48.63047" lon="2.00824">
        <ele>140.3</ele>
        <time>2023-01-26T09:31:38Z</time>
      </trkpt>
      <trkpt lat="48.63043" lon="2.0081">
        <ele>140.6</ele>
        <time>2023-01-26T09:31:44Z</time>
      </trkpt>
      <trkpt lat="48.63041" lon="2.00796">
        <ele>141.1</ele>
        <time>2023-01-26T09:31:50Z</time>
      </trkpt>
      <trkpt lat="48.63035" lon="2.00783">
        <ele>140.7</ele>
        <time>2023-01-26T09:31:56Z</time>
      </trkpt>
      <trkpt lat="48.63034" lon="2.00768">
        <ele>141.5</ele>
        <time>2023-01-26T09:32:02Z</time>
      </trkpt>
      <trkpt lat="48.63031" lon="2.00753">
        <ele>141.6</ele>
        <time>2023-01-26T09:32:08Z</time>
      </trkpt>
      <trkpt lat="48.63028" lon="2.00739">
        <ele>141.9</ele>
        <time>2023-01-26T09:32:14Z</time>
      </trkpt>
      <trkpt lat="48.63027" lon="2.00725">
        <ele>142.7</ele>
        <time>2023-01-26T09:32:20Z</time>
      </trkpt>
      <trkpt lat="48.63026" lon="2.0071">
        <ele>144.1</ele>
        <time>2023-01-26T09:32:27Z</time>
      </trkpt>
      <trkpt lat="48.6303" lon="2.00697">
        <ele>146.4</ele>
        <time>2023-01-26T09:32:36Z</time>
      </trkpt>
      <trkpt lat="48.63027" lon="2.00684">
        <ele>147.1</ele>
        <time>2023-01-26T09:32:51Z</time>
      </trkpt>
      <trkpt lat="48.63019" lon="2.00675">
        <ele>147.3</ele>
        <time>2023-01-26T09:33:12Z</time>
      </trkpt>
      <trkpt lat="48.63016" lon="2.00661">
        <ele>148.4</ele>
        <time>2023-01-26T09:33:22Z</time>
      </trkpt>
      <trkpt lat="48.63016" lon="2.00646">
        <ele>149.2</ele>
        <time>2023-01-26T09:33:29Z</time>
      </trkpt>
      <trkpt lat="48.63016" lon="2.0063">
        <ele>149.1</ele>
        <time>2023-01-26T09:33:38Z</time>
      </trkpt>
      <trkpt lat="48.63011" lon="2.00618">
        <ele>148.3</ele>
        <time>2023-01-26T09:33:45Z</time>
      </trkpt>
      <trkpt lat="48.63009" lon="2.00604">
        <ele>146.9</ele>
        <time>2023-01-26T09:33:52Z</time>
      </trkpt>
      <trkpt lat="48.63004" lon="2.0059">
        <ele>144.9</ele>
        <time>2023-01-26T09:34:00Z</time>
      </trkpt>
      <trkpt lat="48.62997" lon="2.00581">
        <ele>143.7</ele>
        <time>2023-01-26T09:34:07Z</time>
      </trkpt>
      <trkpt lat="48.62992" lon="2.00568">
        <ele>142.1</ele>
        <time>2023-01-26T09:34:14Z</time>
      </trkpt>
      <trkpt lat="48.62987" lon="2.00554">
        <ele>140.3</ele>
        <time>2023-01-26T09:34:20Z</time>
      </trkpt>
      <trkpt lat="48.62982" lon="2.00541">
        <ele>138.3</ele>
        <time>2023-01-26T09:34:26Z</time>
      </trkpt>
      <trkpt lat="48.62979" lon="2.00528">
        <ele>136.3</ele>
        <time>2023-01-26T09:34:32Z</time>
      </trkpt>
      <trkpt lat="48.62971" lon="2.00517">
        <ele>134.8</ele>
        <time>2023-01-26T09:34:40Z</time>
      </trkpt>
      <trkpt lat="48.62965" lon="2.00506">
        <ele>133.6</ele>
        <time>2023-01-26T09:34:47Z</time>
      </trkpt>
      <trkpt lat="48.6296" lon="2.00494">
        <ele>132.6</ele>
        <time>2023-01-26T09:34:53Z</time>
      </trkpt>
      <trkpt lat="48.62952" lon="2.00485">
        <ele>131.9</ele>
        <time>2023-01-26T09:35:01Z</time>
      </trkpt>
      <trkpt lat="48.62949" lon="2.00472">
        <ele>131</ele>
        <time>2023-01-26T09:35:10Z</time>
      </trkpt>
      <trkpt lat="48.62947" lon="2.00458">
        <ele>130</ele>
        <time>2023-01-26T09:35:18Z</time>
      </trkpt>
      <trkpt lat="48.62943" lon="2.00445">
        <ele>129</ele>
        <time>2023-01-26T09:35:25Z</time>
      </trkpt>
      <trkpt lat="48.62941" lon="2.0043">
        <ele>127.7</ele>
        <time>2023-01-26T09:35:32Z</time>
      </trkpt>
      <trkpt lat="48.62941" lon="2.00416">
        <ele>126.7</ele>
        <time>2023-01-26T09:35:43Z</time>
      </trkpt>
      <trkpt lat="48.62936" lon="2.00404">
        <ele>125.9</ele>
        <time>2023-01-26T09:35:53Z</time>
      </trkpt>
      <trkpt lat="48.62938" lon="2.0039">
        <ele>125.6</ele>
        <time>2023-01-26T09:36:01Z</time>
      </trkpt>
      <trkpt lat="48.62944" lon="2.00379">
        <ele>125.6</ele>
        <time>2023-01-26T09:36:13Z</time>
      </trkpt>
      <trkpt lat="48.6295" lon="2.00368">
        <ele>125.4</ele>
        <time>2023-01-26T09:38:17Z</time>
      </trkpt>
      <trkpt lat="48.62958" lon="2.0036">
        <ele>125.5</ele>
        <time>2023-01-26T09:38:24Z</time>
      </trkpt>
      <trkpt lat="48.62966" lon="2.00356">
        <ele>125.7</ele>
        <time>2023-01-26T09:38:30Z</time>
      </trkpt>
      <trkpt lat="48.62974" lon="2.00347">
        <ele>126.1</ele>
        <time>2023-01-26T09:38:39Z</time>
      </trkpt>
      <trkpt lat="48.62981" lon="2.00337">
        <ele>126.6</ele>
        <time>2023-01-26T09:38:46Z</time>
      </trkpt>
      <trkpt lat="48.62989" lon="2.0033">
        <ele>127.2</ele>
        <time>2023-01-26T09:38:53Z</time>
      </trkpt>
      <trkpt lat="48.62996" lon="2.0032">
        <ele>127.7</ele>
        <time>2023-01-26T09:39:00Z</time>
      </trkpt>
      <trkpt lat="48.63002" lon="2.00309">
        <ele>128.2</ele>
        <time>2023-01-26T09:39:07Z</time>
      </trkpt>
      <trkpt lat="48.6301" lon="2.00299">
        <ele>128.7</ele>
        <time>2023-01-26T09:39:15Z</time>
      </trkpt>
      <trkpt lat="48.63018" lon="2.00291">
        <ele>129.1</ele>
        <time>2023-01-26T09:39:22Z</time>
      </trkpt>
      <trkpt lat="48.63025" lon="2.00282">
        <ele>129.1</ele>
        <time>2023-01-26T09:39:29Z</time>
      </trkpt>
      <trkpt lat="48.63033" lon="2.00274">
        <ele>129</ele>
        <time>2023-01-26T09:39:36Z</time>
      </trkpt>
      <trkpt lat="48.63042" lon="2.00267">
        <ele>128.7</ele>
        <time>2023-01-26T09:39:43Z</time>
      </trkpt>
      <trkpt lat="48.6305" lon="2.0026">
        <ele>128.2</ele>
        <time>2023-01-26T09:39:50Z</time>
      </trkpt>
      <trkpt lat="48.63059" lon="2.00256">
        <ele>127.9</ele>
        <time>2023-01-26T09:39:55Z</time>
      </trkpt>
      <trkpt lat="48.63068" lon="2.00252">
        <ele>127.7</ele>
        <time>2023-01-26T09:40:01Z</time>
      </trkpt>
      <trkpt lat="48.63077" lon="2.00249">
        <ele>127.6</ele>
        <time>2023-01-26T09:40:09Z</time>
      </trkpt>
      <trkpt lat="48.63087" lon="2.00244">
        <ele>127</ele>
        <time>2023-01-26T09:40:17Z</time>
      </trkpt>
      <trkpt lat="48.63095" lon="2.00236">
        <ele>125.8</ele>
        <time>2023-01-26T09:40:26Z</time>
      </trkpt>
      <trkpt lat="48.63105" lon="2.00236">
        <ele>125.6</ele>
        <time>2023-01-26T09:40:33Z</time>
      </trkpt>
      <trkpt lat="48.63114" lon="2.0023">
        <ele>125</ele>
        <time>2023-01-26T09:40:39Z</time>
      </trkpt>
      <trkpt lat="48.63124" lon="2.00227">
        <ele>124.9</ele>
        <time>2023-01-26T09:40:46Z</time>
      </trkpt>
      <trkpt lat="48.63134" lon="2.00226">
        <ele>125.1</ele>
        <time>2023-01-26T09:40:53Z</time>
      </trkpt>
      <trkpt lat="48.63143" lon="2.00226">
        <ele>125.5</ele>
        <time>2023-01-26T09:40:58Z</time>
      </trkpt>
      <trkpt lat="48.63153" lon="2.00224">
        <ele>125.8</ele>
        <time>2023-01-26T09:41:05Z</time>
      </trkpt>
      <trkpt lat="48.63162" lon="2.00222">
        <ele>125.9</ele>
        <time>2023-01-26T09:41:11Z</time>
      </trkpt>
      <trkpt lat="48.63172" lon="2.00221">
        <ele>126.3</ele>
        <time>2023-01-26T09:41:17Z</time>
      </trkpt>
      <trkpt lat="48.63181" lon="2.00217">
        <ele>126.8</ele>
        <time>2023-01-26T09:41:23Z</time>
      </trkpt>
      <trkpt lat="48.63192" lon="2.00215">
        <ele>127.3</ele>
        <time>2023-01-26T09:41:29Z</time>
      </trkpt>
      <trkpt lat="48.632" lon="2.00213">
        <ele>127.6</ele>
        <time>2023-01-26T09:41:35Z</time>
      </trkpt>
      <trkpt lat="48.6321" lon="2.00213">
        <ele>127.9</ele>
        <time>2023-01-26T09:41:42Z</time>
      </trkpt>
      <trkpt lat="48.63219" lon="2.00212">
        <ele>128.2</ele>
        <time>2023-01-26T09:41:50Z</time>
      </trkpt>
      <trkpt lat="48.63229" lon="2.00206">
        <ele>127.9</ele>
        <time>2023-01-26T09:41:59Z</time>
      </trkpt>
      <trkpt lat="48.63239" lon="2.00203">
        <ele>128.1</ele>
        <time>2023-01-26T09:42:06Z</time>
      </trkpt>
      <trkpt lat="48.63249" lon="2.00199">
        <ele>128.2</ele>
        <time>2023-01-26T09:42:13Z</time>
      </trkpt>
      <trkpt lat="48.63259" lon="2.00198">
        <ele>128.5</ele>
        <time>2023-01-26T09:42:21Z</time>
      </trkpt>
      <trkpt lat="48.63269" lon="2.00199">
        <ele>128.9</ele>
        <time>2023-01-26T09:42:29Z</time>
      </trkpt>
      <trkpt lat="48.63278" lon="2.002">
        <ele>129.4</ele>
        <time>2023-01-26T09:42:37Z</time>
      </trkpt>
      <trkpt lat="48.63288" lon="2.00199">
        <ele>129.7</ele>
        <time>2023-01-26T09:42:47Z</time>
      </trkpt>
      <trkpt lat="48.63298" lon="2.00199">
        <ele>130</ele>
        <time>2023-01-26T09:42:55Z</time>
      </trkpt>
      <trkpt lat="48.63308" lon="2.002">
        <ele>130.5</ele>
        <time>2023-01-26T09:43:05Z</time>
      </trkpt>
      <trkpt lat="48.63317" lon="2.00199">
        <ele>130.8</ele>
        <time>2023-01-26T09:43:12Z</time>
      </trkpt>
      <trkpt lat="48.63327" lon="2.00196">
        <ele>130.9</ele>
        <time>2023-01-26T09:43:18Z</time>
      </trkpt>
      <trkpt lat="48.63336" lon="2.00195">
        <ele>131.2</ele>
        <time>2023-01-26T09:43:24Z</time>
      </trkpt>
      <trkpt lat="48.63345" lon="2.00191">
        <ele>131.7</ele>
        <time>2023-01-26T09:43:30Z</time>
      </trkpt>
      <trkpt lat="48.63354" lon="2.00187">
        <ele>132</ele>
        <time>2023-01-26T09:43:36Z</time>
      </trkpt>
      <trkpt lat="48.63364" lon="2.00185">
        <ele>132.5</ele>
        <time>2023-01-26T09:43:44Z</time>
      </trkpt>
      <trkpt lat="48.63374" lon="2.00182">
        <ele>133.1</ele>
        <time>2023-01-26T09:43:50Z</time>
      </trkpt>
      <trkpt lat="48.63382" lon="2.00177">
        <ele>133.2</ele>
        <time>2023-01-26T09:43:56Z</time>
      </trkpt>
      <trkpt lat="48.63391" lon="2.00173">
        <ele>133.6</ele>
        <time>2023-01-26T09:44:02Z</time>
      </trkpt>
      <trkpt lat="48.63401" lon="2.00168">
        <ele>133.9</ele>
        <time>2023-01-26T09:44:08Z</time>
      </trkpt>
      <trkpt lat="48.63411" lon="2.00164">
        <ele>134.4</ele>
        <time>2023-01-26T09:44:15Z</time>
      </trkpt>
      <trkpt lat="48.6342" lon="2.00162">
        <ele>135</ele>
        <time>2023-01-26T09:44:22Z</time>
      </trkpt>
      <trkpt lat="48.63429" lon="2.00155">
        <ele>135.3</ele>
        <time>2023-01-26T09:44:29Z</time>
      </trkpt>
      <trkpt lat="48.63438" lon="2.0015">
        <ele>135.6</ele>
        <time>2023-01-26T09:44:36Z</time>
      </trkpt>
      <trkpt lat="48.63447" lon="2.00146">
        <ele>135.7</ele>
        <time>2023-01-26T09:44:43Z</time>
      </trkpt>
      <trkpt lat="48.63456" lon="2.00147">
        <ele>135.8</ele>
        <time>2023-01-26T09:44:50Z</time>
      </trkpt>
      <trkpt lat="48.63466" lon="2.00148">
        <ele>135.7</ele>
        <time>2023-01-26T09:44:57Z</time>
      </trkpt>
      <trkpt lat="48.63476" lon="2.00152">
        <ele>135.9</ele>
        <time>2023-01-26T09:45:03Z</time>
      </trkpt>
      <trkpt lat="48.63485" lon="2.00157">
        <ele>136</ele>
        <time>2023-01-26T09:45:09Z</time>
      </trkpt>
      <trkpt lat="48.63495" lon="2.00163">
        <ele>136</ele>
        <time>2023-01-26T09:45:17Z</time>
      </trkpt>
      <trkpt lat="48.63505" lon="2.00163">
        <ele>136.2</ele>
        <time>2023-01-26T09:45:23Z</time>
      </trkpt>
      <trkpt lat="48.63515" lon="2.00162">
        <ele>136.8</ele>
        <time>2023-01-26T09:45:30Z</time>
      </trkpt>
      <trkpt lat="48.63525" lon="2.0016">
        <ele>137.3</ele>
        <time>2023-01-26T09:45:37Z</time>
      </trkpt>
      <trkpt lat="48.63534" lon="2.00156">
        <ele>137.5</ele>
        <time>2023-01-26T09:45:44Z</time>
      </trkpt>
      <trkpt lat="48.63543" lon="2.00149">
        <ele>137.6</ele>
        <time>2023-01-26T09:45:52Z</time>
      </trkpt>
      <trkpt lat="48.63551" lon="2.00141">
        <ele>137.7</ele>
        <time>2023-01-26T09:46:00Z</time>
      </trkpt>
      <trkpt lat="48.63559" lon="2.00137">
        <ele>138.2</ele>
        <time>2023-01-26T09:46:08Z</time>
      </trkpt>
      <trkpt lat="48.63568" lon="2.00132">
        <ele>138.6</ele>
        <time>2023-01-26T09:46:15Z</time>
      </trkpt>
      <trkpt lat="48.63577" lon="2.00127">
        <ele>139.2</ele>
        <time>2023-01-26T09:46:23Z</time>
      </trkpt>
      <trkpt lat="48.63586" lon="2.00123">
        <ele>139.6</ele>
        <time>2023-01-26T09:46:31Z</time>
      </trkpt>
      <trkpt lat="48.63582" lon="2.0011">
        <ele>138.9</ele>
        <time>2023-01-26T09:46:55Z</time>
      </trkpt>
      <trkpt lat="48.63573" lon="2.00104">
        <ele>138</ele>
        <time>2023-01-26T09:47:04Z</time>
      </trkpt>
      <trkpt lat="48.63565" lon="2.00098">
        <ele>137.2</ele>
        <time>2023-01-26T09:47:12Z</time>
      </trkpt>
      <trkpt lat="48.63557" lon="2.0009">
        <ele>136.3</ele>
        <time>2023-01-26T09:47:19Z</time>
      </trkpt>
      <trkpt lat="48.63548" lon="2.00084">
        <ele>135.8</ele>
        <time>2023-01-26T09:47:27Z</time>
      </trkpt>
      <trkpt lat="48.6354" lon="2.00077">
        <ele>135.7</ele>
        <time>2023-01-26T09:47:35Z</time>
      </trkpt>
      <trkpt lat="48.63532" lon="2.0007">
        <ele>135.6</ele>
        <time>2023-01-26T09:47:42Z</time>
      </trkpt>
      <trkpt lat="48.63522" lon="2.00064">
        <ele>135.6</ele>
        <time>2023-01-26T09:47:50Z</time>
      </trkpt>
      <trkpt lat="48.63514" lon="2.00056">
        <ele>135.5</ele>
        <time>2023-01-26T09:47:58Z</time>
      </trkpt>
      <trkpt lat="48.63504" lon="2.00051">
        <ele>135.3</ele>
        <time>2023-01-26T09:48:04Z</time>
      </trkpt>
      <trkpt lat="48.63494" lon="2.00046">
        <ele>135.1</ele>
        <time>2023-01-26T09:48:10Z</time>
      </trkpt>
      <trkpt lat="48.63484" lon="2.00042">
        <ele>134.9</ele>
        <time>2023-01-26T09:48:17Z</time>
      </trkpt>
      <trkpt lat="48.63474" lon="2.0004">
        <ele>134.7</ele>
        <time>2023-01-26T09:48:24Z</time>
      </trkpt>
      <trkpt lat="48.63465" lon="2.00034">
        <ele>134.7</ele>
        <time>2023-01-26T09:48:31Z</time>
      </trkpt>
      <trkpt lat="48.63456" lon="2.00029">
        <ele>135</ele>
        <time>2023-01-26T09:48:38Z</time>
      </trkpt>
      <trkpt lat="48.63447" lon="2.00028">
        <ele>135</ele>
        <time>2023-01-26T09:48:44Z</time>
      </trkpt>
      <trkpt lat="48.63437" lon="2.00029">
        <ele>134.6</ele>
        <time>2023-01-26T09:48:51Z</time>
      </trkpt>
      <trkpt lat="48.63427" lon="2.00029">
        <ele>134.3</ele>
        <time>2023-01-26T09:48:57Z</time>
      </trkpt>
      <trkpt lat="48.63418" lon="2.00027">
        <ele>134.1</ele>
        <time>2023-01-26T09:49:03Z</time>
      </trkpt>
      <trkpt lat="48.63408" lon="2.00026">
        <ele>133.8</ele>
        <time>2023-01-26T09:49:10Z</time>
      </trkpt>
      <trkpt lat="48.63398" lon="2.00024">
        <ele>133.6</ele>
        <time>2023-01-26T09:49:17Z</time>
      </trkpt>
      <trkpt lat="48.63389" lon="2.00022">
        <ele>133.5</ele>
        <time>2023-01-26T09:49:24Z</time>
      </trkpt>
      <trkpt lat="48.6338" lon="2.0002">
        <ele>133.5</ele>
        <time>2023-01-26T09:49:31Z</time>
      </trkpt>
      <trkpt lat="48.63371" lon="2.00017">
        <ele>133.8</ele>
        <time>2023-01-26T09:49:38Z</time>
      </trkpt>
      <trkpt lat="48.63362" lon="2.00012">
        <ele>134.1</ele>
        <time>2023-01-26T09:49:45Z</time>
      </trkpt>
      <trkpt lat="48.63353" lon="2.00009">
        <ele>134.4</ele>
        <time>2023-01-26T09:49:52Z</time>
      </trkpt>
      <trkpt lat="48.63344" lon="2.00005">
        <ele>134.6</ele>
        <time>2023-01-26T09:49:59Z</time>
      </trkpt>
      <trkpt lat="48.63335" lon="2.00003">
        <ele>134.8</ele>
        <time>2023-01-26T09:50:06Z</time>
      </trkpt>
      <trkpt lat="48.63325" lon="2.00001">
        <ele>134.9</ele>
        <time>2023-01-26T09:50:14Z</time>
      </trkpt>
      <trkpt lat="48.63325" lon="1.99987">
        <ele>135.5</ele>
        <time>2023-01-26T09:50:23Z</time>
      </trkpt>
      <trkpt lat="48.63327" lon="1.99973">
        <ele>136</ele>
        <time>2023-01-26T09:50:31Z</time>
      </trkpt>
      <trkpt lat="48.63328" lon="1.99959">
        <ele>136.5</ele>
        <time>2023-01-26T09:50:38Z</time>
      </trkpt>
      <trkpt lat="48.63329" lon="1.99944">
        <ele>137</ele>
        <time>2023-01-26T09:50:45Z</time>
      </trkpt>
      <trkpt lat="48.63328" lon="1.99929">
        <ele>137.5</ele>
        <time>2023-01-26T09:50:53Z</time>
      </trkpt>
      <trkpt lat="48.63328" lon="1.99914">
        <ele>138.2</ele>
        <time>2023-01-26T09:51:01Z</time>
      </trkpt>
      <trkpt lat="48.63328" lon="1.99898">
        <ele>139.3</ele>
        <time>2023-01-26T09:51:09Z</time>
      </trkpt>
      <trkpt lat="48.63328" lon="1.99883">
        <ele>140.2</ele>
        <time>2023-01-26T09:51:16Z</time>
      </trkpt>
      <trkpt lat="48.63328" lon="1.99868">
        <ele>140.7</ele>
        <time>2023-01-26T09:51:23Z</time>
      </trkpt>
      <trkpt lat="48.63327" lon="1.99854">
        <ele>141.5</ele>
        <time>2023-01-26T09:51:30Z</time>
      </trkpt>
      <trkpt lat="48.63326" lon="1.99839">
        <ele>142.6</ele>
        <time>2023-01-26T09:51:38Z</time>
      </trkpt>
      <trkpt lat="48.63325" lon="1.99825">
        <ele>143.6</ele>
        <time>2023-01-26T09:51:45Z</time>
      </trkpt>
      <trkpt lat="48.63325" lon="1.99811">
        <ele>144.6</ele>
        <time>2023-01-26T09:51:52Z</time>
      </trkpt>
      <trkpt lat="48.63324" lon="1.99797">
        <ele>145.6</ele>
        <time>2023-01-26T09:52:02Z</time>
      </trkpt>
      <trkpt lat="48.63325" lon="1.99783">
        <ele>146.6</ele>
        <time>2023-01-26T09:52:09Z</time>
      </trkpt>
      <trkpt lat="48.63326" lon="1.99769">
        <ele>147.5</ele>
        <time>2023-01-26T09:52:17Z</time>
      </trkpt>
      <trkpt lat="48.63324" lon="1.99754">
        <ele>148.4</ele>
        <time>2023-01-26T09:52:26Z</time>
      </trkpt>
      <trkpt lat="48.63324" lon="1.9974">
        <ele>148.7</ele>
        <time>2023-01-26T09:52:34Z</time>
      </trkpt>
      <trkpt lat="48.63327" lon="1.99727">
        <ele>148.8</ele>
        <time>2023-01-26T09:52:40Z</time>
      </trkpt>
      <trkpt lat="48.63331" lon="1.99713">
        <ele>148.9</ele>
        <time>2023-01-26T09:52:47Z</time>
      </trkpt>
      <trkpt lat="48.63337" lon="1.99701">
        <ele>149.2</ele>
        <time>2023-01-26T09:52:55Z</time>
      </trkpt>
      <trkpt lat="48.63338" lon="1.99687">
        <ele>149.1</ele>
        <time>2023-01-26T09:53:33Z</time>
      </trkpt>
      <trkpt lat="48.63342" lon="1.99674">
        <ele>148.9</ele>
        <time>2023-01-26T09:53:40Z</time>
      </trkpt>
      <trkpt lat="48.63345" lon="1.9966">
        <ele>148.4</ele>
        <time>2023-01-26T09:53:47Z</time>
      </trkpt>
      <trkpt lat="48.63345" lon="1.99646">
        <ele>147.7</ele>
        <time>2023-01-26T09:53:55Z</time>
      </trkpt>
      <trkpt lat="48.63347" lon="1.99632">
        <ele>147</ele>
        <time>2023-01-26T09:54:04Z</time>
      </trkpt>
      <trkpt lat="48.63349" lon="1.99618">
        <ele>146.2</ele>
        <time>2023-01-26T09:54:14Z</time>
      </trkpt>
      <trkpt lat="48.63348" lon="1.99603">
        <ele>145</ele>
        <time>2023-01-26T09:54:21Z</time>
      </trkpt>
      <trkpt lat="48.63354" lon="1.99592">
        <ele>144.9</ele>
        <time>2023-01-26T09:54:28Z</time>
      </trkpt>
      <trkpt lat="48.63364" lon="1.99593">
        <ele>146</ele>
        <time>2023-01-26T09:54:39Z</time>
      </trkpt>
      <trkpt lat="48.63374" lon="1.99589">
        <ele>146.9</ele>
        <time>2023-01-26T09:54:46Z</time>
      </trkpt>
      <trkpt lat="48.63384" lon="1.99591">
        <ele>148.2</ele>
        <time>2023-01-26T09:54:53Z</time>
      </trkpt>
      <trkpt lat="48.63393" lon="1.99584">
        <ele>148.6</ele>
        <time>2023-01-26T09:55:01Z</time>
      </trkpt>
      <trkpt lat="48.63401" lon="1.99581">
        <ele>149.7</ele>
        <time>2023-01-26T09:55:10Z</time>
      </trkpt>
      <trkpt lat="48.63411" lon="1.99585">
        <ele>151.2</ele>
        <time>2023-01-26T09:55:18Z</time>
      </trkpt>
      <trkpt lat="48.63419" lon="1.99591">
        <ele>152.5</ele>
        <time>2023-01-26T09:55:27Z</time>
      </trkpt>
      <trkpt lat="48.63429" lon="1.99593">
        <ele>153.2</ele>
        <time>2023-01-26T09:55:39Z</time>
      </trkpt>
      <trkpt lat="48.63438" lon="1.99595">
        <ele>153.9</ele>
        <time>2023-01-26T09:55:47Z</time>
      </trkpt>
      <trkpt lat="48.63448" lon="1.99593">
        <ele>154.6</ele>
        <time>2023-01-26T09:55:55Z</time>
      </trkpt>
      <trkpt lat="48.63455" lon="1.99583">
        <ele>155.1</ele>
        <time>2023-01-26T09:56:04Z</time>
      </trkpt>
      <trkpt lat="48.63462" lon="1.99575">
        <ele>155.6</ele>
        <time>2023-01-26T09:56:11Z</time>
      </trkpt>
      <trkpt lat="48.63472" lon="1.99569">
        <ele>156.4</ele>
        <time>2023-01-26T09:56:17Z</time>
      </trkpt>
      <trkpt lat="48.63481" lon="1.99564">
        <ele>157.7</ele>
        <time>2023-01-26T09:56:23Z</time>
      </trkpt>
      <trkpt lat="48.6349" lon="1.99557">
        <ele>159.1</ele>
        <time>2023-01-26T09:56:33Z</time>
      </trkpt>
      <trkpt lat="48.63498" lon="1.99551">
        <ele>160.6</ele>
        <time>2023-01-26T09:56:40Z</time>
      </trkpt>
      <trkpt lat="48.63501" lon="1.99537">
        <ele>161.1</ele>
        <time>2023-01-26T09:57:03Z</time>
      </trkpt>
      <trkpt lat="48.63501" lon="1.99522">
        <ele>161.3</ele>
        <time>2023-01-26T09:57:12Z</time>
      </trkpt>
      <trkpt lat="48.635" lon="1.99507">
        <ele>161.7</ele>
        <time>2023-01-26T09:57:19Z</time>
      </trkpt>
      <trkpt lat="48.63499" lon="1.99492">
        <ele>162.2</ele>
        <time>2023-01-26T09:57:27Z</time>
      </trkpt>
      <trkpt lat="48.635" lon="1.99476">
        <ele>162.8</ele>
        <time>2023-01-26T09:57:35Z</time>
      </trkpt>
      <trkpt lat="48.63498" lon="1.99462">
        <ele>162.8</ele>
        <time>2023-01-26T09:57:42Z</time>
      </trkpt>
      <trkpt lat="48.63495" lon="1.99448">
        <ele>162.8</ele>
        <time>2023-01-26T09:57:50Z</time>
      </trkpt>
      <trkpt lat="48.63499" lon="1.99434">
        <ele>163.7</ele>
        <time>2023-01-26T09:57:57Z</time>
      </trkpt>
      <trkpt lat="48.63503" lon="1.99421">
        <ele>164.2</ele>
        <time>2023-01-26T09:58:03Z</time>
      </trkpt>
      <trkpt lat="48.63502" lon="1.99406">
        <ele>164.2</ele>
        <time>2023-01-26T09:58:10Z</time>
      </trkpt>
      <trkpt lat="48.635" lon="1.99392">
        <ele>164</ele>
        <time>2023-01-26T09:58:17Z</time>
      </trkpt>
      <trkpt lat="48.63501" lon="1.99378">
        <ele>164.1</ele>
        <time>2023-01-26T09:58:24Z</time>
      </trkpt>
      <trkpt lat="48.63501" lon="1.99362">
        <ele>164.1</ele>
        <time>2023-01-26T09:58:31Z</time>
      </trkpt>
      <trkpt lat="48.63501" lon="1.99348">
        <ele>164.5</ele>
        <time>2023-01-26T09:58:37Z</time>
      </trkpt>
      <trkpt lat="48.63501" lon="1.99334">
        <ele>165</ele>
        <time>2023-01-26T09:58:44Z</time>
      </trkpt>
      <trkpt lat="48.63501" lon="1.99319">
        <ele>164.5</ele>
        <time>2023-01-26T09:58:51Z</time>
      </trkpt>
      <trkpt lat="48.63503" lon="1.99306">
        <ele>164.2</ele>
        <time>2023-01-26T09:58:58Z</time>
      </trkpt>
      <trkpt lat="48.63505" lon="1.99292">
        <ele>164.5</ele>
        <time>2023-01-26T09:59:06Z</time>
      </trkpt>
      <trkpt lat="48.63506" lon="1.99278">
        <ele>164.7</ele>
        <time>2023-01-26T09:59:14Z</time>
      </trkpt>
      <trkpt lat="48.63515" lon="1.99271">
        <ele>165.6</ele>
        <time>2023-01-26T09:59:23Z</time>
      </trkpt>
      <trkpt lat="48.63524" lon="1.99272">
        <ele>166.6</ele>
        <time>2023-01-26T09:59:30Z</time>
      </trkpt>
      <trkpt lat="48.63534" lon="1.99271">
        <ele>167</ele>
        <time>2023-01-26T09:59:36Z</time>
      </trkpt>
      <trkpt lat="48.63544" lon="1.9927">
        <ele>167</ele>
        <time>2023-01-26T09:59:44Z</time>
      </trkpt>
      <trkpt lat="48.63551" lon="1.99262">
        <ele>167</ele>
        <time>2023-01-26T09:59:52Z</time>
      </trkpt>
      <trkpt lat="48.63554" lon="1.99248">
        <ele>167</ele>
        <time>2023-01-26T09:59:58Z</time>
      </trkpt>
      <trkpt lat="48.63559" lon="1.99235">
        <ele>167.1</ele>
        <time>2023-01-26T10:00:06Z</time>
      </trkpt>
      <trkpt lat="48.63567" lon="1.99226">
        <ele>167.4</ele>
        <time>2023-01-26T10:00:13Z</time>
      </trkpt>
      <trkpt lat="48.63573" lon="1.99214">
        <ele>167.6</ele>
        <time>2023-01-26T10:00:20Z</time>
      </trkpt>
      <trkpt lat="48.63581" lon="1.99206">
        <ele>167.9</ele>
        <time>2023-01-26T10:00:28Z</time>
      </trkpt>
      <trkpt lat="48.6359" lon="1.992">
        <ele>168</ele>
        <time>2023-01-26T10:00:36Z</time>
      </trkpt>
      <trkpt lat="48.63597" lon="1.99189">
        <ele>167.8</ele>
        <time>2023-01-26T10:00:43Z</time>
      </trkpt>
      <trkpt lat="48.63603" lon="1.99179">
        <ele>167.4</ele>
        <time>2023-01-26T10:00:49Z</time>
      </trkpt>
      <trkpt lat="48.63611" lon="1.99169">
        <ele>167.1</ele>
        <time>2023-01-26T10:00:56Z</time>
      </trkpt>
      <trkpt lat="48.63618" lon="1.99159">
        <ele>166.8</ele>
        <time>2023-01-26T10:01:02Z</time>
      </trkpt>
      <trkpt lat="48.63626" lon="1.9915">
        <ele>166.7</ele>
        <time>2023-01-26T10:01:09Z</time>
      </trkpt>
      <trkpt lat="48.63633" lon="1.99139">
        <ele>166.8</ele>
        <time>2023-01-26T10:01:17Z</time>
      </trkpt>
      <trkpt lat="48.63641" lon="1.99129">
        <ele>166.7</ele>
        <time>2023-01-26T10:01:24Z</time>
      </trkpt>
      <trkpt lat="48.63649" lon="1.9912">
        <ele>166.5</ele>
        <time>2023-01-26T10:01:31Z</time>
      </trkpt>
      <trkpt lat="48.63656" lon="1.9911">
        <ele>166.6</ele>
        <time>2023-01-26T10:01:39Z</time>
      </trkpt>
      <trkpt lat="48.63663" lon="1.991">
        <ele>166.5</ele>
        <time>2023-01-26T10:01:47Z</time>
      </trkpt>
      <trkpt lat="48.63669" lon="1.99089">
        <ele>166.3</ele>
        <time>2023-01-26T10:01:54Z</time>
      </trkpt>
      <trkpt lat="48.63677" lon="1.99081">
        <ele>166.2</ele>
        <time>2023-01-26T10:02:02Z</time>
      </trkpt>
      <trkpt lat="48.63684" lon="1.99071">
        <ele>166</ele>
        <time>2023-01-26T10:02:10Z</time>
      </trkpt>
      <trkpt lat="48.63691" lon="1.99061">
        <ele>166</ele>
        <time>2023-01-26T10:02:18Z</time>
      </trkpt>
      <trkpt lat="48.63695" lon="1.99048">
        <ele>165.8</ele>
        <time>2023-01-26T10:02:26Z</time>
      </trkpt>
      <trkpt lat="48.637" lon="1.99037">
        <ele>165.8</ele>
        <time>2023-01-26T10:02:33Z</time>
      </trkpt>
      <trkpt lat="48.63706" lon="1.99026">
        <ele>166.2</ele>
        <time>2023-01-26T10:02:40Z</time>
      </trkpt>
      <trkpt lat="48.63712" lon="1.99015">
        <ele>166.5</ele>
        <time>2023-01-26T10:02:46Z</time>
      </trkpt>
      <trkpt lat="48.63719" lon="1.99005">
        <ele>166.8</ele>
        <time>2023-01-26T10:02:52Z</time>
      </trkpt>
      <trkpt lat="48.63727" lon="1.98997">
        <ele>167.4</ele>
        <time>2023-01-26T10:02:58Z</time>
      </trkpt>
      <trkpt lat="48.63733" lon="1.98986">
        <ele>168.3</ele>
        <time>2023-01-26T10:03:04Z</time>
      </trkpt>
      <trkpt lat="48.63741" lon="1.98977">
        <ele>169.2</ele>
        <time>2023-01-26T10:03:11Z</time>
      </trkpt>
      <trkpt lat="48.63749" lon="1.98969">
        <ele>170</ele>
        <time>2023-01-26T10:03:19Z</time>
      </trkpt>
      <trkpt lat="48.63754" lon="1.98957">
        <ele>170.8</ele>
        <time>2023-01-26T10:03:26Z</time>
      </trkpt>
      <trkpt lat="48.63763" lon="1.98949">
        <ele>171.4</ele>
        <time>2023-01-26T10:03:34Z</time>
      </trkpt>
      <trkpt lat="48.6377" lon="1.98939">
        <ele>171.8</ele>
        <time>2023-01-26T10:03:41Z</time>
      </trkpt>
      <trkpt lat="48.63777" lon="1.9893">
        <ele>172.5</ele>
        <time>2023-01-26T10:03:49Z</time>
      </trkpt>
      <trkpt lat="48.63783" lon="1.98919">
        <ele>172.9</ele>
        <time>2023-01-26T10:03:57Z</time>
      </trkpt>
      <trkpt lat="48.63789" lon="1.98908">
        <ele>173</ele>
        <time>2023-01-26T10:04:04Z</time>
      </trkpt>
      <trkpt lat="48.63796" lon="1.98898">
        <ele>173</ele>
        <time>2023-01-26T10:04:13Z</time>
      </trkpt>
      <trkpt lat="48.6379" lon="1.98887">
        <ele>173</ele>
        <time>2023-01-26T10:04:42Z</time>
      </trkpt>
      <trkpt lat="48.63799" lon="1.98886">
        <ele>173</ele>
        <time>2023-01-26T10:05:58Z</time>
      </trkpt>
      <trkpt lat="48.63803" lon="1.98873">
        <ele>173</ele>
        <time>2023-01-26T10:06:18Z</time>
      </trkpt>
      <trkpt lat="48.63805" lon="1.98859">
        <ele>173</ele>
        <time>2023-01-26T10:06:29Z</time>
      </trkpt>
      <trkpt lat="48.63796" lon="1.98854">
        <ele>172.9</ele>
        <time>2023-01-26T10:07:26Z</time>
      </trkpt>
      <trkpt lat="48.63787" lon="1.98855">
        <ele>172.9</ele>
        <time>2023-01-26T10:07:37Z</time>
      </trkpt>
      <trkpt lat="48.63778" lon="1.98857">
        <ele>172.9</ele>
        <time>2023-01-26T10:07:48Z</time>
      </trkpt>
      <trkpt lat="48.63768" lon="1.98854">
        <ele>172.1</ele>
        <time>2023-01-26T10:08:38Z</time>
      </trkpt>
      <trkpt lat="48.63759" lon="1.98856">
        <ele>171.5</ele>
        <time>2023-01-26T10:08:45Z</time>
      </trkpt>
      <trkpt lat="48.63749" lon="1.98857">
        <ele>170.7</ele>
        <time>2023-01-26T10:08:53Z</time>
      </trkpt>
      <trkpt lat="48.63739" lon="1.98859">
        <ele>169.3</ele>
        <time>2023-01-26T10:09:00Z</time>
      </trkpt>
      <trkpt lat="48.63729" lon="1.98864">
        <ele>168.1</ele>
        <time>2023-01-26T10:09:07Z</time>
      </trkpt>
      <trkpt lat="48.6372" lon="1.98868">
        <ele>167</ele>
        <time>2023-01-26T10:09:14Z</time>
      </trkpt>
      <trkpt lat="48.6371" lon="1.98872">
        <ele>165.7</ele>
        <time>2023-01-26T10:09:21Z</time>
      </trkpt>
      <trkpt lat="48.63701" lon="1.98874">
        <ele>164.3</ele>
        <time>2023-01-26T10:09:29Z</time>
      </trkpt>
      <trkpt lat="48.63692" lon="1.9888">
        <ele>163.3</ele>
        <time>2023-01-26T10:09:36Z</time>
      </trkpt>
      <trkpt lat="48.63683" lon="1.98885">
        <ele>162.2</ele>
        <time>2023-01-26T10:09:45Z</time>
      </trkpt>
      <trkpt lat="48.63674" lon="1.98887">
        <ele>160.9</ele>
        <time>2023-01-26T10:09:55Z</time>
      </trkpt>
      <trkpt lat="48.63664" lon="1.9889">
        <ele>159.5</ele>
        <time>2023-01-26T10:10:04Z</time>
      </trkpt>
      <trkpt lat="48.63655" lon="1.9889">
        <ele>157.8</ele>
        <time>2023-01-26T10:10:11Z</time>
      </trkpt>
      <trkpt lat="48.63645" lon="1.9889">
        <ele>156</ele>
        <time>2023-01-26T10:10:19Z</time>
      </trkpt>
      <trkpt lat="48.63635" lon="1.9889">
        <ele>154.2</ele>
        <time>2023-01-26T10:10:26Z</time>
      </trkpt>
      <trkpt lat="48.63625" lon="1.98885">
        <ele>152.8</ele>
        <time>2023-01-26T10:10:36Z</time>
      </trkpt>
      <trkpt lat="48.63615" lon="1.98885">
        <ele>151.1</ele>
        <time>2023-01-26T10:10:45Z</time>
      </trkpt>
      <trkpt lat="48.63605" lon="1.98885">
        <ele>149.3</ele>
        <time>2023-01-26T10:10:54Z</time>
      </trkpt>
      <trkpt lat="48.63595" lon="1.98886">
        <ele>147.5</ele>
        <time>2023-01-26T10:11:03Z</time>
      </trkpt>
      <trkpt lat="48.63586" lon="1.98888">
        <ele>145.6</ele>
        <time>2023-01-26T10:11:12Z</time>
      </trkpt>
      <trkpt lat="48.63577" lon="1.98885">
        <ele>144.2</ele>
        <time>2023-01-26T10:11:22Z</time>
      </trkpt>
      <trkpt lat="48.63568" lon="1.98883">
        <ele>142.8</ele>
        <time>2023-01-26T10:11:30Z</time>
      </trkpt>
      <trkpt lat="48.63559" lon="1.98884">
        <ele>141</ele>
        <time>2023-01-26T10:11:38Z</time>
      </trkpt>
      <trkpt lat="48.6355" lon="1.98884">
        <ele>139.3</ele>
        <time>2023-01-26T10:11:46Z</time>
      </trkpt>
      <trkpt lat="48.6354" lon="1.98881">
        <ele>137.7</ele>
        <time>2023-01-26T10:11:52Z</time>
      </trkpt>
      <trkpt lat="48.63531" lon="1.98883">
        <ele>135.7</ele>
        <time>2023-01-26T10:11:59Z</time>
      </trkpt>
      <trkpt lat="48.63522" lon="1.98889">
        <ele>134.6</ele>
        <time>2023-01-26T10:12:07Z</time>
      </trkpt>
      <trkpt lat="48.63512" lon="1.98889">
        <ele>133.9</ele>
        <time>2023-01-26T10:12:14Z</time>
      </trkpt>
      <trkpt lat="48.63503" lon="1.98886">
        <ele>133.1</ele>
        <time>2023-01-26T10:12:22Z</time>
      </trkpt>
      <trkpt lat="48.63494" lon="1.9888">
        <ele>132</ele>
        <time>2023-01-26T10:12:29Z</time>
      </trkpt>
      <trkpt lat="48.63485" lon="1.98873">
        <ele>131</ele>
        <time>2023-01-26T10:12:37Z</time>
      </trkpt>
      <trkpt lat="48.63475" lon="1.98865">
        <ele>129.7</ele>
        <time>2023-01-26T10:12:43Z</time>
      </trkpt>
      <trkpt lat="48.63466" lon="1.9886">
        <ele>128.7</ele>
        <time>2023-01-26T10:12:49Z</time>
      </trkpt>
      <trkpt lat="48.63456" lon="1.98858">
        <ele>128.2</ele>
        <time>2023-01-26T10:12:56Z</time>
      </trkpt>
      <trkpt lat="48.63448" lon="1.98863">
        <ele>128.4</ele>
        <time>2023-01-26T10:13:11Z</time>
      </trkpt>
      <trkpt lat="48.63446" lon="1.98878">
        <ele>129.9</ele>
        <time>2023-01-26T10:13:27Z</time>
      </trkpt>
      <trkpt lat="48.63438" lon="1.98885">
        <ele>130.5</ele>
        <time>2023-01-26T10:13:35Z</time>
      </trkpt>
      <trkpt lat="48.63432" lon="1.98896">
        <ele>131.8</ele>
        <time>2023-01-26T10:13:44Z</time>
      </trkpt>
      <trkpt lat="48.6343" lon="1.98911">
        <ele>133.4</ele>
        <time>2023-01-26T10:13:52Z</time>
      </trkpt>
      <trkpt lat="48.63426" lon="1.98924">
        <ele>134.8</ele>
        <time>2023-01-26T10:14:00Z</time>
      </trkpt>
      <trkpt lat="48.63424" lon="1.98938">
        <ele>136.3</ele>
        <time>2023-01-26T10:14:08Z</time>
      </trkpt>
      <trkpt lat="48.6342" lon="1.98951">
        <ele>137.5</ele>
        <time>2023-01-26T10:14:17Z</time>
      </trkpt>
      <trkpt lat="48.63418" lon="1.98965">
        <ele>138.5</ele>
        <time>2023-01-26T10:14:29Z</time>
      </trkpt>
      <trkpt lat="48.63409" lon="1.98975">
        <ele>138.7</ele>
        <time>2023-01-26T10:14:37Z</time>
      </trkpt>
      <trkpt lat="48.63407" lon="1.98988">
        <ele>139.6</ele>
        <time>2023-01-26T10:14:43Z</time>
      </trkpt>
      <trkpt lat="48.63403" lon="1.99002">
        <ele>140.2</ele>
        <time>2023-01-26T10:14:52Z</time>
      </trkpt>
      <trkpt lat="48.63398" lon="1.99015">
        <ele>140</ele>
        <time>2023-01-26T10:15:00Z</time>
      </trkpt>
      <trkpt lat="48.63395" lon="1.99028">
        <ele>140.2</ele>
        <time>2023-01-26T10:15:08Z</time>
      </trkpt>
      <trkpt lat="48.6339" lon="1.9904">
        <ele>138.3</ele>
        <time>2023-01-26T10:15:16Z</time>
      </trkpt>
      <trkpt lat="48.63384" lon="1.99051">
        <ele>136.2</ele>
        <time>2023-01-26T10:15:22Z</time>
      </trkpt>
      <trkpt lat="48.6338" lon="1.99065">
        <ele>134.5</ele>
        <time>2023-01-26T10:15:28Z</time>
      </trkpt>
      <trkpt lat="48.63376" lon="1.99079">
        <ele>132.9</ele>
        <time>2023-01-26T10:15:35Z</time>
      </trkpt>
      <trkpt lat="48.63371" lon="1.99092">
        <ele>131.3</ele>
        <time>2023-01-26T10:15:42Z</time>
      </trkpt>
      <trkpt lat="48.63365" lon="1.99103">
        <ele>129.9</ele>
        <time>2023-01-26T10:15:49Z</time>
      </trkpt>
      <trkpt lat="48.63357" lon="1.99112">
        <ele>128.4</ele>
        <time>2023-01-26T10:15:56Z</time>
      </trkpt>
      <trkpt lat="48.63351" lon="1.99124">
        <ele>127.6</ele>
        <time>2023-01-26T10:16:03Z</time>
      </trkpt>
      <trkpt lat="48.63345" lon="1.99135">
        <ele>126.8</ele>
        <time>2023-01-26T10:16:11Z</time>
      </trkpt>
      <trkpt lat="48.6334" lon="1.99147">
        <ele>126.2</ele>
        <time>2023-01-26T10:16:20Z</time>
      </trkpt>
      <trkpt lat="48.63333" lon="1.99158">
        <ele>125.7</ele>
        <time>2023-01-26T10:16:29Z</time>
      </trkpt>
      <trkpt lat="48.63326" lon="1.99166">
        <ele>125.4</ele>
        <time>2023-01-26T10:16:37Z</time>
      </trkpt>
      <trkpt lat="48.63317" lon="1.99173">
        <ele>125.5</ele>
        <time>2023-01-26T10:16:45Z</time>
      </trkpt>
      <trkpt lat="48.63308" lon="1.99179">
        <ele>125.5</ele>
        <time>2023-01-26T10:16:53Z</time>
      </trkpt>
      <trkpt lat="48.63301" lon="1.99191">
        <ele>126.2</ele>
        <time>2023-01-26T10:17:00Z</time>
      </trkpt>
      <trkpt lat="48.63294" lon="1.992">
        <ele>126.1</ele>
        <time>2023-01-26T10:17:08Z</time>
      </trkpt>
      <trkpt lat="48.63286" lon="1.99211">
        <ele>126.1</ele>
        <time>2023-01-26T10:17:16Z</time>
      </trkpt>
      <trkpt lat="48.63276" lon="1.99211">
        <ele>125.2</ele>
        <time>2023-01-26T10:17:25Z</time>
      </trkpt>
      <trkpt lat="48.63267" lon="1.99203">
        <ele>124.6</ele>
        <time>2023-01-26T10:17:32Z</time>
      </trkpt>
      <trkpt lat="48.6326" lon="1.99193">
        <ele>123.9</ele>
        <time>2023-01-26T10:17:40Z</time>
      </trkpt>
      <trkpt lat="48.63252" lon="1.99183">
        <ele>123.2</ele>
        <time>2023-01-26T10:17:46Z</time>
      </trkpt>
      <trkpt lat="48.63242" lon="1.99181">
        <ele>122.8</ele>
        <time>2023-01-26T10:17:57Z</time>
      </trkpt>
      <trkpt lat="48.63236" lon="1.99169">
        <ele>121.7</ele>
        <time>2023-01-26T10:18:03Z</time>
      </trkpt>
      <trkpt lat="48.63229" lon="1.99159">
        <ele>120.9</ele>
        <time>2023-01-26T10:18:09Z</time>
      </trkpt>
      <trkpt lat="48.63222" lon="1.99152">
        <ele>120.4</ele>
        <time>2023-01-26T10:18:15Z</time>
      </trkpt>
      <trkpt lat="48.63214" lon="1.99143">
        <ele>119.8</ele>
        <time>2023-01-26T10:18:21Z</time>
      </trkpt>
      <trkpt lat="48.63206" lon="1.99135">
        <ele>119.3</ele>
        <time>2023-01-26T10:18:27Z</time>
      </trkpt>
      <trkpt lat="48.63198" lon="1.99129">
        <ele>118.8</ele>
        <time>2023-01-26T10:18:34Z</time>
      </trkpt>
      <trkpt lat="48.63188" lon="1.99123">
        <ele>118.2</ele>
        <time>2023-01-26T10:18:42Z</time>
      </trkpt>
      <trkpt lat="48.63179" lon="1.99118">
        <ele>117.7</ele>
        <time>2023-01-26T10:18:48Z</time>
      </trkpt>
      <trkpt lat="48.6317" lon="1.99113">
        <ele>117.2</ele>
        <time>2023-01-26T10:18:54Z</time>
      </trkpt>
      <trkpt lat="48.63163" lon="1.99104">
        <ele>116.4</ele>
        <time>2023-01-26T10:19:01Z</time>
      </trkpt>
      <trkpt lat="48.6316" lon="1.99091">
        <ele>115.3</ele>
        <time>2023-01-26T10:19:13Z</time>
      </trkpt>
      <trkpt lat="48.63154" lon="1.9908">
        <ele>114.4</ele>
        <time>2023-01-26T10:19:21Z</time>
      </trkpt>
      <trkpt lat="48.63145" lon="1.99077">
        <ele>114</ele>
        <time>2023-01-26T10:19:35Z</time>
      </trkpt>
      <trkpt lat="48.63138" lon="1.99087">
        <ele>114.3</ele>
        <time>2023-01-26T10:20:06Z</time>
      </trkpt>
      <trkpt lat="48.63133" lon="1.99099">
        <ele>115</ele>
        <time>2023-01-26T10:20:13Z</time>
      </trkpt>
      <trkpt lat="48.63127" lon="1.9911">
        <ele>115.5</ele>
        <time>2023-01-26T10:20:20Z</time>
      </trkpt>
      <trkpt lat="48.6312" lon="1.99119">
        <ele>115.6</ele>
        <time>2023-01-26T10:20:27Z</time>
      </trkpt>
      <trkpt lat="48.63113" lon="1.9913">
        <ele>115.8</ele>
        <time>2023-01-26T10:20:35Z</time>
      </trkpt>
      <trkpt lat="48.63107" lon="1.99141">
        <ele>115.9</ele>
        <time>2023-01-26T10:20:42Z</time>
      </trkpt>
      <trkpt lat="48.63102" lon="1.99154">
        <ele>116.2</ele>
        <time>2023-01-26T10:20:49Z</time>
      </trkpt>
      <trkpt lat="48.63099" lon="1.99169">
        <ele>116.6</ele>
        <time>2023-01-26T10:20:56Z</time>
      </trkpt>
      <trkpt lat="48.63096" lon="1.99182">
        <ele>117</ele>
        <time>2023-01-26T10:21:02Z</time>
      </trkpt>
      <trkpt lat="48.63092" lon="1.99196">
        <ele>117.4</ele>
        <time>2023-01-26T10:21:10Z</time>
      </trkpt>
      <trkpt lat="48.6309" lon="1.9921">
        <ele>118</ele>
        <time>2023-01-26T10:21:16Z</time>
      </trkpt>
      <trkpt lat="48.63088" lon="1.99225">
        <ele>118.4</ele>
        <time>2023-01-26T10:21:22Z</time>
      </trkpt>
      <trkpt lat="48.63082" lon="1.99239">
        <ele>118.5</ele>
        <time>2023-01-26T10:21:28Z</time>
      </trkpt>
      <trkpt lat="48.63078" lon="1.99251">
        <ele>118.7</ele>
        <time>2023-01-26T10:21:34Z</time>
      </trkpt>
      <trkpt lat="48.63072" lon="1.99262">
        <ele>118.6</ele>
        <time>2023-01-26T10:21:41Z</time>
      </trkpt>
      <trkpt lat="48.6307" lon="1.99276">
        <ele>118.9</ele>
        <time>2023-01-26T10:21:49Z</time>
      </trkpt>
      <trkpt lat="48.63066" lon="1.99289">
        <ele>118.8</ele>
        <time>2023-01-26T10:21:56Z</time>
      </trkpt>
      <trkpt lat="48.63063" lon="1.99304">
        <ele>118.6</ele>
        <time>2023-01-26T10:22:02Z</time>
      </trkpt>
      <trkpt lat="48.63061" lon="1.99317">
        <ele>118.4</ele>
        <time>2023-01-26T10:22:08Z</time>
      </trkpt>
      <trkpt lat="48.63057" lon="1.9933">
        <ele>118.1</ele>
        <time>2023-01-26T10:22:17Z</time>
      </trkpt>
      <trkpt lat="48.63052" lon="1.99342">
        <ele>117.8</ele>
        <time>2023-01-26T10:22:25Z</time>
      </trkpt>
      <trkpt lat="48.63045" lon="1.99354">
        <ele>117.4</ele>
        <time>2023-01-26T10:22:34Z</time>
      </trkpt>
      <trkpt lat="48.63041" lon="1.99367">
        <ele>116.9</ele>
        <time>2023-01-26T10:22:42Z</time>
      </trkpt>
      <trkpt lat="48.63035" lon="1.99378">
        <ele>116.5</ele>
        <time>2023-01-26T10:22:50Z</time>
      </trkpt>
      <trkpt lat="48.63028" lon="1.99389">
        <ele>116.1</ele>
        <time>2023-01-26T10:22:57Z</time>
      </trkpt>
      <trkpt lat="48.63021" lon="1.99399">
        <ele>116.1</ele>
        <time>2023-01-26T10:23:04Z</time>
      </trkpt>
      <trkpt lat="48.63014" lon="1.99409">
        <ele>116.2</ele>
        <time>2023-01-26T10:23:11Z</time>
      </trkpt>
      <trkpt lat="48.63009" lon="1.99422">
        <ele>116.4</ele>
        <time>2023-01-26T10:23:18Z</time>
      </trkpt>
      <trkpt lat="48.63004" lon="1.99435">
        <ele>116.2</ele>
        <time>2023-01-26T10:23:25Z</time>
      </trkpt>
      <trkpt lat="48.62998" lon="1.99447">
        <ele>116</ele>
        <time>2023-01-26T10:23:31Z</time>
      </trkpt>
      <trkpt lat="48.62993" lon="1.99459">
        <ele>116</ele>
        <time>2023-01-26T10:23:37Z</time>
      </trkpt>
      <trkpt lat="48.62988" lon="1.99472">
        <ele>116.2</ele>
        <time>2023-01-26T10:23:43Z</time>
      </trkpt>
      <trkpt lat="48.62983" lon="1.99485">
        <ele>116.4</ele>
        <time>2023-01-26T10:23:50Z</time>
      </trkpt>
      <trkpt lat="48.62976" lon="1.99497">
        <ele>116.3</ele>
        <time>2023-01-26T10:23:58Z</time>
      </trkpt>
      <trkpt lat="48.62971" lon="1.9951">
        <ele>116.6</ele>
        <time>2023-01-26T10:24:05Z</time>
      </trkpt>
      <trkpt lat="48.62964" lon="1.99521">
        <ele>116.7</ele>
        <time>2023-01-26T10:24:12Z</time>
      </trkpt>
      <trkpt lat="48.62959" lon="1.99533">
        <ele>116.8</ele>
        <time>2023-01-26T10:24:18Z</time>
      </trkpt>
      <trkpt lat="48.62951" lon="1.99542">
        <ele>116.4</ele>
        <time>2023-01-26T10:24:25Z</time>
      </trkpt>
      <trkpt lat="48.62942" lon="1.9955">
        <ele>115.7</ele>
        <time>2023-01-26T10:24:31Z</time>
      </trkpt>
      <trkpt lat="48.62933" lon="1.99554">
        <ele>115.5</ele>
        <time>2023-01-26T10:24:37Z</time>
      </trkpt>
      <trkpt lat="48.62923" lon="1.99556">
        <ele>115.2</ele>
        <time>2023-01-26T10:24:44Z</time>
      </trkpt>
      <trkpt lat="48.6292" lon="1.99569">
        <ele>115.2</ele>
        <time>2023-01-26T10:24:56Z</time>
      </trkpt>
      <trkpt lat="48.62911" lon="1.9957">
        <ele>115.1</ele>
        <time>2023-01-26T10:25:02Z</time>
      </trkpt>
      <trkpt lat="48.629" lon="1.99566">
        <ele>115.2</ele>
        <time>2023-01-26T10:25:08Z</time>
      </trkpt>
      <trkpt lat="48.62891" lon="1.99565">
        <ele>115.3</ele>
        <time>2023-01-26T10:25:14Z</time>
      </trkpt>
      <trkpt lat="48.62883" lon="1.99569">
        <ele>115.9</ele>
        <time>2023-01-26T10:25:21Z</time>
      </trkpt>
      <trkpt lat="48.62873" lon="1.99564">
        <ele>116.4</ele>
        <time>2023-01-26T10:25:26Z</time>
      </trkpt>
      <trkpt lat="48.62864" lon="1.9956">
        <ele>116.9</ele>
        <time>2023-01-26T10:25:31Z</time>
      </trkpt>
      <trkpt lat="48.62855" lon="1.99558">
        <ele>117.5</ele>
        <time>2023-01-26T10:25:37Z</time>
      </trkpt>
      <trkpt lat="48.62846" lon="1.99556">
        <ele>118.1</ele>
        <time>2023-01-26T10:25:43Z</time>
      </trkpt>
      <trkpt lat="48.62837" lon="1.99552">
        <ele>118.6</ele>
        <time>2023-01-26T10:25:49Z</time>
      </trkpt>
      <trkpt lat="48.62828" lon="1.99551">
        <ele>119.2</ele>
        <time>2023-01-26T10:25:55Z</time>
      </trkpt>
      <trkpt lat="48.62817" lon="1.9955">
        <ele>119.8</ele>
        <time>2023-01-26T10:26:02Z</time>
      </trkpt>
      <trkpt lat="48.62808" lon="1.99545">
        <ele>120.1</ele>
        <time>2023-01-26T10:26:09Z</time>
      </trkpt>
      <trkpt lat="48.62797" lon="1.99542">
        <ele>120.3</ele>
        <time>2023-01-26T10:26:15Z</time>
      </trkpt>
      <trkpt lat="48.62787" lon="1.99539">
        <ele>120.5</ele>
        <time>2023-01-26T10:26:21Z</time>
      </trkpt>
      <trkpt lat="48.62778" lon="1.99536">
        <ele>120.6</ele>
        <time>2023-01-26T10:26:27Z</time>
      </trkpt>
      <trkpt lat="48.62769" lon="1.99534">
        <ele>120.2</ele>
        <time>2023-01-26T10:26:33Z</time>
      </trkpt>
      <trkpt lat="48.62759" lon="1.99531">
        <ele>119.6</ele>
        <time>2023-01-26T10:26:40Z</time>
      </trkpt>
      <trkpt lat="48.62749" lon="1.99531">
        <ele>119.2</ele>
        <time>2023-01-26T10:26:47Z</time>
      </trkpt>
      <trkpt lat="48.6274" lon="1.99531">
        <ele>118.3</ele>
        <time>2023-01-26T10:26:54Z</time>
      </trkpt>
      <trkpt lat="48.6273" lon="1.9953">
        <ele>117.1</ele>
        <time>2023-01-26T10:27:00Z</time>
      </trkpt>
      <trkpt lat="48.62721" lon="1.9953">
        <ele>116.3</ele>
        <time>2023-01-26T10:27:06Z</time>
      </trkpt>
      <trkpt lat="48.62711" lon="1.99529">
        <ele>115.8</ele>
        <time>2023-01-26T10:27:12Z</time>
      </trkpt>
      <trkpt lat="48.62702" lon="1.9953">
        <ele>115.6</ele>
        <time>2023-01-26T10:27:19Z</time>
      </trkpt>
      <trkpt lat="48.62692" lon="1.99531">
        <ele>115.4</ele>
        <time>2023-01-26T10:27:26Z</time>
      </trkpt>
      <trkpt lat="48.62683" lon="1.99534">
        <ele>115.6</ele>
        <time>2023-01-26T10:27:33Z</time>
      </trkpt>
      <trkpt lat="48.62673" lon="1.99536">
        <ele>115.4</ele>
        <time>2023-01-26T10:27:40Z</time>
      </trkpt>
      <trkpt lat="48.62663" lon="1.99538">
        <ele>115.6</ele>
        <time>2023-01-26T10:27:47Z</time>
      </trkpt>
      <trkpt lat="48.62654" lon="1.99542">
        <ele>116.3</ele>
        <time>2023-01-26T10:27:53Z</time>
      </trkpt>
      <trkpt lat="48.62644" lon="1.99544">
        <ele>116.7</ele>
        <time>2023-01-26T10:28:00Z</time>
      </trkpt>
      <trkpt lat="48.62635" lon="1.99543">
        <ele>116.3</ele>
        <time>2023-01-26T10:28:08Z</time>
      </trkpt>
      <trkpt lat="48.62625" lon="1.99544">
        <ele>115.7</ele>
        <time>2023-01-26T10:28:16Z</time>
      </trkpt>
      <trkpt lat="48.62615" lon="1.99547">
        <ele>115.4</ele>
        <time>2023-01-26T10:28:23Z</time>
      </trkpt>
      <trkpt lat="48.62605" lon="1.99547">
        <ele>114.8</ele>
        <time>2023-01-26T10:28:29Z</time>
      </trkpt>
      <trkpt lat="48.62596" lon="1.99547">
        <ele>114.1</ele>
        <time>2023-01-26T10:28:35Z</time>
      </trkpt>
      <trkpt lat="48.62587" lon="1.99547">
        <ele>113.6</ele>
        <time>2023-01-26T10:28:41Z</time>
      </trkpt>
      <trkpt lat="48.62578" lon="1.99546">
        <ele>113.1</ele>
        <time>2023-01-26T10:28:47Z</time>
      </trkpt>
      <trkpt lat="48.62568" lon="1.99549">
        <ele>113</ele>
        <time>2023-01-26T10:28:54Z</time>
      </trkpt>
      <trkpt lat="48.62559" lon="1.99551">
        <ele>112.8</ele>
        <time>2023-01-26T10:29:02Z</time>
      </trkpt>
      <trkpt lat="48.6255" lon="1.99551">
        <ele>112.5</ele>
        <time>2023-01-26T10:29:09Z</time>
      </trkpt>
      <trkpt lat="48.62541" lon="1.99552">
        <ele>112.3</ele>
        <time>2023-01-26T10:29:17Z</time>
      </trkpt>
      <trkpt lat="48.62531" lon="1.99551">
        <ele>111.9</ele>
        <time>2023-01-26T10:29:24Z</time>
      </trkpt>
      <trkpt lat="48.62521" lon="1.99551">
        <ele>111.8</ele>
        <time>2023-01-26T10:29:31Z</time>
      </trkpt>
      <trkpt lat="48.62511" lon="1.99551">
        <ele>111.8</ele>
        <time>2023-01-26T10:29:38Z</time>
      </trkpt>
      <trkpt lat="48.62501" lon="1.9955">
        <ele>111.8</ele>
        <time>2023-01-26T10:29:46Z</time>
      </trkpt>
      <trkpt lat="48.62492" lon="1.99549">
        <ele>111.3</ele>
        <time>2023-01-26T10:29:53Z</time>
      </trkpt>
      <trkpt lat="48.62482" lon="1.99548">
        <ele>110.8</ele>
        <time>2023-01-26T10:30:00Z</time>
      </trkpt>
      <trkpt lat="48.62472" lon="1.99543">
        <ele>110.4</ele>
        <time>2023-01-26T10:30:07Z</time>
      </trkpt>
      <trkpt lat="48.62463" lon="1.99541">
        <ele>110.2</ele>
        <time>2023-01-26T10:30:13Z</time>
      </trkpt>
      <trkpt lat="48.62452" lon="1.99539">
        <ele>109.9</ele>
        <time>2023-01-26T10:30:19Z</time>
      </trkpt>
      <trkpt lat="48.62443" lon="1.99537">
        <ele>109.6</ele>
        <time>2023-01-26T10:30:25Z</time>
      </trkpt>
      <trkpt lat="48.62434" lon="1.99534">
        <ele>109.1</ele>
        <time>2023-01-26T10:30:32Z</time>
      </trkpt>
      <trkpt lat="48.62424" lon="1.99532">
        <ele>108.5</ele>
        <time>2023-01-26T10:30:39Z</time>
      </trkpt>
      <trkpt lat="48.62415" lon="1.99531">
        <ele>107.9</ele>
        <time>2023-01-26T10:30:46Z</time>
      </trkpt>
      <trkpt lat="48.62406" lon="1.99532">
        <ele>107.6</ele>
        <time>2023-01-26T10:30:53Z</time>
      </trkpt>
      <trkpt lat="48.62396" lon="1.99535">
        <ele>107.3</ele>
        <time>2023-01-26T10:31:00Z</time>
      </trkpt>
      <trkpt lat="48.62388" lon="1.99539">
        <ele>107</ele>
        <time>2023-01-26T10:31:08Z</time>
      </trkpt>
      <trkpt lat="48.62385" lon="1.99553">
        <ele>107</ele>
        <time>2023-01-26T10:31:25Z</time>
      </trkpt>
      <trkpt lat="48.62377" lon="1.99562">
        <ele>107</ele>
        <time>2023-01-26T10:31:31Z</time>
      </trkpt>
      <trkpt lat="48.62371" lon="1.99572">
        <ele>107</ele>
        <time>2023-01-26T10:31:37Z</time>
      </trkpt>
      <trkpt lat="48.62366" lon="1.99584">
        <ele>107</ele>
        <time>2023-01-26T10:31:43Z</time>
      </trkpt>
      <trkpt lat="48.62361" lon="1.99597">
        <ele>106.5</ele>
        <time>2023-01-26T10:31:50Z</time>
      </trkpt>
      <trkpt lat="48.62355" lon="1.99609">
        <ele>106.2</ele>
        <time>2023-01-26T10:31:57Z</time>
      </trkpt>
      <trkpt lat="48.6235" lon="1.99622">
        <ele>106.6</ele>
        <time>2023-01-26T10:32:04Z</time>
      </trkpt>
      <trkpt lat="48.62344" lon="1.99635">
        <ele>106.9</ele>
        <time>2023-01-26T10:32:11Z</time>
      </trkpt>
      <trkpt lat="48.62338" lon="1.99646">
        <ele>107.4</ele>
        <time>2023-01-26T10:32:18Z</time>
      </trkpt>
      <trkpt lat="48.62329" lon="1.99653">
        <ele>108</ele>
        <time>2023-01-26T10:32:25Z</time>
      </trkpt>
      <trkpt lat="48.62319" lon="1.99656">
        <ele>108.2</ele>
        <time>2023-01-26T10:32:32Z</time>
      </trkpt>
      <trkpt lat="48.6231" lon="1.99661">
        <ele>108.6</ele>
        <time>2023-01-26T10:32:39Z</time>
      </trkpt>
      <trkpt lat="48.62301" lon="1.99667">
        <ele>108.8</ele>
        <time>2023-01-26T10:32:47Z</time>
      </trkpt>
      <trkpt lat="48.62293" lon="1.99674">
        <ele>109.3</ele>
        <time>2023-01-26T10:32:54Z</time>
      </trkpt>
      <trkpt lat="48.62284" lon="1.99681">
        <ele>109.8</ele>
        <time>2023-01-26T10:33:01Z</time>
      </trkpt>
      <trkpt lat="48.62276" lon="1.9969">
        <ele>110.5</ele>
        <time>2023-01-26T10:33:08Z</time>
      </trkpt>
      <trkpt lat="48.62268" lon="1.99698">
        <ele>111</ele>
        <time>2023-01-26T10:33:16Z</time>
      </trkpt>
      <trkpt lat="48.6226" lon="1.99707">
        <ele>111.4</ele>
        <time>2023-01-26T10:33:24Z</time>
      </trkpt>
      <trkpt lat="48.62251" lon="1.99715">
        <ele>111.5</ele>
        <time>2023-01-26T10:33:32Z</time>
      </trkpt>
      <trkpt lat="48.62245" lon="1.99726">
        <ele>112.3</ele>
        <time>2023-01-26T10:33:41Z</time>
      </trkpt>
      <trkpt lat="48.62241" lon="1.9974">
        <ele>113.5</ele>
        <time>2023-01-26T10:33:50Z</time>
      </trkpt>
      <trkpt lat="48.62234" lon="1.9975">
        <ele>113.9</ele>
        <time>2023-01-26T10:33:59Z</time>
      </trkpt>
      <trkpt lat="48.62234" lon="1.99764">
        <ele>114.9</ele>
        <time>2023-01-26T10:34:10Z</time>
      </trkpt>
      <trkpt lat="48.62227" lon="1.99774">
        <ele>115.1</ele>
        <time>2023-01-26T10:34:19Z</time>
      </trkpt>
      <trkpt lat="48.62224" lon="1.99787">
        <ele>115.4</ele>
        <time>2023-01-26T10:34:37Z</time>
      </trkpt>
      <trkpt lat="48.62221" lon="1.99802">
        <ele>115.7</ele>
        <time>2023-01-26T10:34:45Z</time>
      </trkpt>
      <trkpt lat="48.6222" lon="1.99817">
        <ele>115.9</ele>
        <time>2023-01-26T10:34:52Z</time>
      </trkpt>
      <trkpt lat="48.62223" lon="1.99831">
        <ele>116.1</ele>
        <time>2023-01-26T10:35:00Z</time>
      </trkpt>
      <trkpt lat="48.62223" lon="1.99846">
        <ele>116.5</ele>
        <time>2023-01-26T10:35:08Z</time>
      </trkpt>
      <trkpt lat="48.62224" lon="1.99861">
        <ele>117</ele>
        <time>2023-01-26T10:35:16Z</time>
      </trkpt>
      <trkpt lat="48.62226" lon="1.99875">
        <ele>117.6</ele>
        <time>2023-01-26T10:35:23Z</time>
      </trkpt>
      <trkpt lat="48.62228" lon="1.99889">
        <ele>118.2</ele>
        <time>2023-01-26T10:35:30Z</time>
      </trkpt>
      <trkpt lat="48.62227" lon="1.99904">
        <ele>118.6</ele>
        <time>2023-01-26T10:35:37Z</time>
      </trkpt>
      <trkpt lat="48.62224" lon="1.99918">
        <ele>119</ele>
        <time>2023-01-26T10:35:44Z</time>
      </trkpt>
      <trkpt lat="48.6222" lon="1.99931">
        <ele>118.9</ele>
        <time>2023-01-26T10:35:51Z</time>
      </trkpt>
      <trkpt lat="48.62222" lon="1.99945">
        <ele>119</ele>
        <time>2023-01-26T10:35:59Z</time>
      </trkpt>
      <trkpt lat="48.62217" lon="1.99957">
        <ele>118.7</ele>
        <time>2023-01-26T10:36:06Z</time>
      </trkpt>
      <trkpt lat="48.62209" lon="1.99966">
        <ele>118.2</ele>
        <time>2023-01-26T10:36:13Z</time>
      </trkpt>
      <trkpt lat="48.62207" lon="1.9998">
        <ele>117.9</ele>
        <time>2023-01-26T10:36:20Z</time>
      </trkpt>
      <trkpt lat="48.62207" lon="1.99995">
        <ele>117.9</ele>
        <time>2023-01-26T10:36:26Z</time>
      </trkpt>
      <trkpt lat="48.62204" lon="2.0001">
        <ele>117.7</ele>
        <time>2023-01-26T10:36:33Z</time>
      </trkpt>
      <trkpt lat="48.62203" lon="2.00024">
        <ele>117.6</ele>
        <time>2023-01-26T10:36:40Z</time>
      </trkpt>
      <trkpt lat="48.62202" lon="2.00039">
        <ele>117.5</ele>
        <time>2023-01-26T10:36:48Z</time>
      </trkpt>
      <trkpt lat="48.622" lon="2.00054">
        <ele>117.4</ele>
        <time>2023-01-26T10:36:56Z</time>
      </trkpt>
      <trkpt lat="48.62199" lon="2.00069">
        <ele>117.3</ele>
        <time>2023-01-26T10:37:03Z</time>
      </trkpt>
      <trkpt lat="48.62197" lon="2.00083">
        <ele>117.2</ele>
        <time>2023-01-26T10:37:09Z</time>
      </trkpt>
      <trkpt lat="48.62196" lon="2.00099">
        <ele>117.1</ele>
        <time>2023-01-26T10:37:15Z</time>
      </trkpt>
      <trkpt lat="48.62194" lon="2.00114">
        <ele>116.9</ele>
        <time>2023-01-26T10:37:21Z</time>
      </trkpt>
      <trkpt lat="48.62192" lon="2.00129">
        <ele>116.8</ele>
        <time>2023-01-26T10:37:28Z</time>
      </trkpt>
      <trkpt lat="48.62192" lon="2.00143">
        <ele>116.6</ele>
        <time>2023-01-26T10:37:36Z</time>
      </trkpt>
      <trkpt lat="48.62191" lon="2.00157">
        <ele>116</ele>
        <time>2023-01-26T10:37:43Z</time>
      </trkpt>
      <trkpt lat="48.62189" lon="2.00171">
        <ele>115.6</ele>
        <time>2023-01-26T10:37:50Z</time>
      </trkpt>
      <trkpt lat="48.62191" lon="2.00185">
        <ele>115.8</ele>
        <time>2023-01-26T10:37:58Z</time>
      </trkpt>
      <trkpt lat="48.6219" lon="2.00199">
        <ele>115.5</ele>
        <time>2023-01-26T10:38:05Z</time>
      </trkpt>
      <trkpt lat="48.62188" lon="2.00214">
        <ele>115</ele>
        <time>2023-01-26T10:38:12Z</time>
      </trkpt>
      <trkpt lat="48.62187" lon="2.00228">
        <ele>114.7</ele>
        <time>2023-01-26T10:38:19Z</time>
      </trkpt>
      <trkpt lat="48.62192" lon="2.0024">
        <ele>114.9</ele>
        <time>2023-01-26T10:38:27Z</time>
      </trkpt>
      <trkpt lat="48.62197" lon="2.00252">
        <ele>115</ele>
        <time>2023-01-26T10:38:36Z</time>
      </trkpt>
      <trkpt lat="48.62201" lon="2.00266">
        <ele>114.6</ele>
        <time>2023-01-26T10:38:45Z</time>
      </trkpt>
    </trkseg>
  </trk>
</gpx>